<?xml version="1.0" encoding="UTF-8" standalone="yes"?>
<gpx
 xmlns="http://www.topografix.com/GPX/1/1"
 creator="OziExplorer Version 3956f - http://www.oziexplorer.com"
 version="1.1"
 xmlns:xsi="http://www.w3.org/2001/XMLSchema-instance"
 xsi:schemaLocation="http://www.topografix.com/GPX/1/1 http://www.topografix.com/GPX/1/1/gpx.xsd">
<metadata>
 <time>2020-12-23T06:10:01Z</time>
 <bounds minlat="31.068120" minlon="35.194610" maxlat="31.248270" maxlon="35.386318"/>
</metadata>
<wpt lat="31.2481400" lon="35.1983500">
 <ele>559.003174</ele>
 <time>1992-01-02T00:00:00.000Z</time>
 <name>1-START</name>
 <cmt>Zapravka PAZ, Izor Tasiya Arad</cmt>
 <desc>Zapravka PAZ, Izor Tasiya Arad</desc>
 <sym>Bike Trail</sym>
</wpt>
<wpt lat="31.2003217" lon="35.2165309">
 <ele>609.904785</ele>
 <time>1992-01-02T00:00:00.000Z</time>
 <name>29TATPID-YAHEL</name>
 <cmt>29</cmt>
 <desc>29</desc>
 <sym>Flag, Blue</sym>
</wpt>
<wpt lat="31.1823100" lon="35.2050200">
 <ele>490.118408</ele>
 <time>1992-01-02T00:00:00.000Z</time>
 <name>40SPUSK-KIPOR</name>
 <cmt>Trudniy spusk s gori Kipor</cmt>
 <desc>Trudniy spusk s gori Kipor</desc>
 <sym>Flag, Blue</sym>
</wpt>
<wpt lat="31.1164500" lon="35.2514200">
 <ele>250.850403</ele>
 <time>1992-01-02T00:00:00.000Z</time>
 <name>76-PODEM1</name>
 <cmt>76</cmt>
 <desc>76</desc>
 <sym>Flag, Blue</sym>
</wpt>
<wpt lat="31.1035020" lon="35.2458710">
 <ele>287.121613</ele>
 <time>1992-01-02T00:00:00.000Z</time>
 <name>81-PODEM2</name>
 <cmt>81</cmt>
 <desc>81</desc>
 <sym>Flag, Blue</sym>
</wpt>
<wpt lat="31.0795010" lon="35.3007780">
 <ele>203.911194</ele>
 <time>1992-01-02T00:00:00.000Z</time>
 <name>123TATSP-AMIAZ</name>
 <cmt>Tatpid na ushele ruchua Amiaz</cmt>
 <desc>Tatpid na ushele ruchua Amiaz</desc>
 <sym>Flag, Blue</sym>
</wpt>
<wpt lat="31.0774600" lon="35.3241600">
 <ele>53.949600</ele>
 <time>1992-01-02T00:00:00.000Z</time>
 <name>135TATSP2-AZGAD</name>
 <cmt>135</cmt>
 <desc>135</desc>
 <sym>Flag, Blue</sym>
</wpt>
<wpt lat="31.0728100" lon="35.3271300">
 <ele>-28.955999</ele>
 <time>1992-01-02T00:00:00.000Z</time>
 <name>140MAALE-AZGAD</name>
 <cmt>140</cmt>
 <desc>140</desc>
 <sym>Flag, Blue</sym>
</wpt>
<wpt lat="31.0747600" lon="35.3392600">
 <ele>-227.990402</ele>
 <time>1992-01-02T00:00:00.000Z</time>
 <name>166-PESHERA</name>
 <cmt>166</cmt>
 <desc>166</desc>
 <sym>Flag, Blue</sym>
</wpt>
<wpt lat="31.0746340" lon="35.3402950">
 <ele>-242.011200</ele>
 <time>1992-01-02T00:00:00.000Z</time>
 <name>168-PRIVAL</name>
 <cmt>168</cmt>
 <desc>168</desc>
 <sym>Flag, Blue</sym>
</wpt>
<wpt lat="31.0783500" lon="35.3516900">
 <ele>-249.021606</ele>
 <time>1992-01-02T00:00:00.000Z</time>
 <name>178RAZV-KEMAH</name>
 <cmt>Razvilka na Mearat Ha-Kemah</cmt>
 <desc>Razvilka na Mearat Ha-Kemah</desc>
 <sym>Flag, Blue</sym>
</wpt>
<wpt lat="31.0806700" lon="35.3767300">
 <ele>-245.059204</ele>
 <time>1992-01-02T00:00:00.000Z</time>
 <name>183Na-Sdom</name>
 <cmt>183</cmt>
 <desc>183</desc>
 <sym>Pin, Green</sym>
</wpt>
<wpt lat="31.0931420" lon="35.3791320">
 <ele>-228.000000</ele>
 <time>1992-01-02T00:00:00.000Z</time>
 <name>188PESHER-SDOM</name>
 <cmt>Nachalo peshehodnogo marshruta na Har (goru) Sdom)</cmt>
 <desc>Nachalo peshehodnogo marshruta na Har (goru) Sdom)</desc>
 <sym>Flag, Blue</sym>
</wpt>
<wpt lat="31.0968800" lon="35.3774800">
 <ele>-244.144806</ele>
 <time>1992-01-02T00:00:00.000Z</time>
 <name>190NAHAL-SDOM</name>
 <cmt>190</cmt>
 <desc>190</desc>
 <sym>Flag, Blue</sym>
</wpt>
<wpt lat="31.1265445" lon="35.3732750">
 <ele>-348.081604</ele>
 <time>1992-01-02T00:00:00.000Z</time>
 <name>228EMEK-ZOAR</name>
 <cmt>Nachalo dolini Zoar</cmt>
 <desc>Nachalo dolini Zoar</desc>
 <sym>Flag, Blue</sym>
</wpt>
<wpt lat="31.1480700" lon="35.3698400">
 <ele>-380.085602</ele>
 <time>1992-01-02T00:00:00.000Z</time>
 <name>240-FINISH</name>
 <cmt>Zapravka DELEK perekrestok Zoar</cmt>
 <desc>Zapravka DELEK perekrestok Zoar</desc>
 <sym>Flag, Red</sym>
</wpt>
<wpt lat="31.0847070" lon="35.3559210">
 <time>2007-11-05T13:36:13.205Z</time>
 <name>MEARAT-KEMAH</name>
 <cmt>Peshera Kemah</cmt>
 <desc>Peshera Kemah</desc>
 <sym>Pin, Blue</sym>
</wpt>
<wpt lat="31.0805279" lon="35.3843442">
 <time>2020-12-23T05:35:31.583Z</time>
 <name>18-Tatspit1Sdom</name>
 <sym>Navaid, Red</sym>
</wpt>
<wpt lat="31.0762827" lon="35.3863183">
 <time>2020-12-23T05:36:03.879Z</time>
 <name>19-Tatspit2Sdom</name>
 <sym>Navaid, Red</sym>
</wpt>
<trk>
 <name>Arad-mm2-1_59km</name>
 <desc>Arad-mm2-1_59km</desc>
<trkseg>
<trkpt lat="31.2482300" lon="35.1979200">
<ele>571.164734</ele>
<time>2011-04-09T05:13:56.004Z</time>
</trkpt>
<trkpt lat="31.2482700" lon="35.1979600">
<ele>571.164734</ele>
<time>2011-04-09T05:14:02.000Z</time>
</trkpt>
<trkpt lat="31.2482500" lon="35.1980800">
<ele>570.189331</ele>
<time>2011-04-09T05:14:15.996Z</time>
</trkpt>
<trkpt lat="31.2479600" lon="35.1982100">
<ele>570.677063</ele>
<time>2011-04-09T05:16:19.004Z</time>
</trkpt>
<trkpt lat="31.2477500" lon="35.1979800">
<ele>570.189331</ele>
<time>2011-04-09T05:16:26.996Z</time>
</trkpt>
<trkpt lat="31.2477300" lon="35.1977500">
<ele>569.244446</ele>
<time>2011-04-09T05:16:30.996Z</time>
</trkpt>
<trkpt lat="31.2474300" lon="35.1975200">
<ele>569.732117</ele>
<time>2011-04-09T05:16:39.999Z</time>
</trkpt>
<trkpt lat="31.2464700" lon="35.1976200">
<ele>572.109619</ele>
<time>2011-04-09T05:17:08.002Z</time>
</trkpt>
<trkpt lat="31.2460200" lon="35.1975200">
<ele>574.517517</ele>
<time>2011-04-09T05:17:24.003Z</time>
</trkpt>
<trkpt lat="31.2440100" lon="35.1969100">
<ele>585.094055</ele>
<time>2011-04-09T05:18:46.999Z</time>
</trkpt>
<trkpt lat="31.2434400" lon="35.1967900">
<ele>584.606384</ele>
<time>2011-04-09T05:19:05.998Z</time>
</trkpt>
<trkpt lat="31.2429800" lon="35.1966100">
<ele>585.094055</ele>
<time>2011-04-09T05:19:21.999Z</time>
</trkpt>
<trkpt lat="31.2366900" lon="35.1947000">
<ele>588.477356</ele>
<time>2011-04-09T05:22:06.997Z</time>
</trkpt>
<trkpt lat="31.2361500" lon="35.1946100">
<ele>590.397583</ele>
<time>2011-04-09T05:22:25.003Z</time>
</trkpt>
<trkpt lat="31.2356300" lon="35.1946300">
<ele>591.342468</ele>
<time>2011-04-09T05:22:41.998Z</time>
</trkpt>
<trkpt lat="31.2349100" lon="35.1948200">
<ele>593.750427</ele>
<time>2011-04-09T05:23:04.998Z</time>
</trkpt>
<trkpt lat="31.2343200" lon="35.1951600">
<ele>596.645996</ele>
<time>2011-04-09T05:23:24.999Z</time>
</trkpt>
<trkpt lat="31.2337900" lon="35.1956500">
<ele>597.590881</ele>
<time>2011-04-09T05:23:45.001Z</time>
</trkpt>
<trkpt lat="31.2333700" lon="35.1961700">
<ele>596.645996</ele>
<time>2011-04-09T05:24:01.996Z</time>
</trkpt>
<trkpt lat="31.2327300" lon="35.1971900">
<ele>599.023438</ele>
<time>2011-04-09T05:24:29.998Z</time>
</trkpt>
<trkpt lat="31.2324100" lon="35.1971300">
<ele>600.974121</ele>
<time>2011-04-09T05:24:40.997Z</time>
</trkpt>
<trkpt lat="31.2322700" lon="35.1965800">
<ele>602.406738</ele>
<time>2011-04-09T05:24:56.998Z</time>
</trkpt>
<trkpt lat="31.2321600" lon="35.1965200">
<ele>602.894409</ele>
<time>2011-04-09T05:25:00.998Z</time>
</trkpt>
<trkpt lat="31.2309200" lon="35.1968400">
<ele>604.326965</ele>
<time>2011-04-09T05:25:38.997Z</time>
</trkpt>
<trkpt lat="31.2305900" lon="35.1971900">
<ele>602.894409</ele>
<time>2011-04-09T05:25:53.003Z</time>
</trkpt>
<trkpt lat="31.2303300" lon="35.1977200">
<ele>604.326965</ele>
<time>2011-04-09T05:26:08.002Z</time>
</trkpt>
<trkpt lat="31.2301500" lon="35.1982800">
<ele>605.302307</ele>
<time>2011-04-09T05:26:23.001Z</time>
</trkpt>
<trkpt lat="31.2298800" lon="35.1988300">
<ele>606.247192</ele>
<time>2011-04-09T05:26:38.000Z</time>
</trkpt>
<trkpt lat="31.2296500" lon="35.1994900">
<ele>607.222534</ele>
<time>2011-04-09T05:26:55.997Z</time>
</trkpt>
<trkpt lat="31.2296000" lon="35.2009300">
<ele>607.222534</ele>
<time>2011-04-09T05:27:32.000Z</time>
</trkpt>
<trkpt lat="31.2293700" lon="35.2018200">
<ele>607.679749</ele>
<time>2011-04-09T05:27:50.999Z</time>
</trkpt>
<trkpt lat="31.2289500" lon="35.2027400">
<ele>604.326965</ele>
<time>2011-04-09T05:28:11.001Z</time>
</trkpt>
<trkpt lat="31.2283700" lon="35.2035100">
<ele>605.302307</ele>
<time>2011-04-09T05:28:31.002Z</time>
</trkpt>
<trkpt lat="31.2277400" lon="35.2046500">
<ele>610.575317</ele>
<time>2011-04-09T05:29:06.996Z</time>
</trkpt>
<trkpt lat="31.2274800" lon="35.2052500">
<ele>612.495605</ele>
<time>2011-04-09T05:29:26.998Z</time>
</trkpt>
<trkpt lat="31.2271600" lon="35.2057700">
<ele>614.415833</ele>
<time>2011-04-09T05:29:45.997Z</time>
</trkpt>
<trkpt lat="31.2268600" lon="35.2063600">
<ele>616.336060</ele>
<time>2011-04-09T05:30:08.004Z</time>
</trkpt>
<trkpt lat="31.2266800" lon="35.2068900">
<ele>616.823730</ele>
<time>2011-04-09T05:30:23.003Z</time>
</trkpt>
<trkpt lat="31.2262400" lon="35.2079100">
<ele>617.799133</ele>
<time>2011-04-09T05:30:53.001Z</time>
</trkpt>
<trkpt lat="31.2258900" lon="35.2083100">
<ele>620.176575</ele>
<time>2011-04-09T05:31:08.000Z</time>
</trkpt>
<trkpt lat="31.2250100" lon="35.2096600">
<ele>625.480103</ele>
<time>2011-04-09T05:31:59.002Z</time>
</trkpt>
<trkpt lat="31.2247500" lon="35.2099200">
<ele>625.967773</ele>
<time>2011-04-09T05:32:11.996Z</time>
</trkpt>
<trkpt lat="31.2240400" lon="35.2099900">
<ele>634.136414</ele>
<time>2011-04-09T05:32:54.004Z</time>
</trkpt>
<trkpt lat="31.2237900" lon="35.2097400">
<ele>635.568970</ele>
<time>2011-04-09T05:33:12.001Z</time>
</trkpt>
<trkpt lat="31.2236600" lon="35.2093800">
<ele>636.056641</ele>
<time>2011-04-09T05:33:31.000Z</time>
</trkpt>
<trkpt lat="31.2232900" lon="35.2091900">
<ele>634.136414</ele>
<time>2011-04-09T05:33:44.004Z</time>
</trkpt>
<trkpt lat="31.2228900" lon="35.2090700">
<ele>630.753113</ele>
<time>2011-04-09T05:33:51.002Z</time>
</trkpt>
<trkpt lat="31.2222900" lon="35.2090300">
<ele>624.504700</ele>
<time>2011-04-09T05:33:59.003Z</time>
</trkpt>
<trkpt lat="31.2220000" lon="35.2088900">
<ele>623.072144</ele>
<time>2011-04-09T05:34:03.003Z</time>
</trkpt>
<trkpt lat="31.2213100" lon="35.2084100">
<ele>617.311462</ele>
<time>2011-04-09T05:34:14.002Z</time>
</trkpt>
<trkpt lat="31.2210200" lon="35.2077500">
<ele>611.063049</ele>
<time>2011-04-09T05:34:22.996Z</time>
</trkpt>
<trkpt lat="31.2206100" lon="35.2064500">
<ele>604.326965</ele>
<time>2011-04-09T05:34:41.002Z</time>
</trkpt>
<trkpt lat="31.2203400" lon="35.2058900">
<ele>604.814636</ele>
<time>2011-04-09T05:34:50.998Z</time>
</trkpt>
<trkpt lat="31.2202100" lon="35.2057700">
<ele>605.759521</ele>
<time>2011-04-09T05:34:54.998Z</time>
</trkpt>
<trkpt lat="31.2197700" lon="35.2055600">
<ele>609.142822</ele>
<time>2011-04-09T05:35:09.997Z</time>
</trkpt>
<trkpt lat="31.2193300" lon="35.2054300">
<ele>611.063049</ele>
<time>2011-04-09T05:35:28.003Z</time>
</trkpt>
<trkpt lat="31.2176900" lon="35.2055000">
<ele>613.928162</ele>
<time>2011-04-09T05:36:17.001Z</time>
</trkpt>
<trkpt lat="31.2173300" lon="35.2056100">
<ele>612.495605</ele>
<time>2011-04-09T05:36:26.004Z</time>
</trkpt>
<trkpt lat="31.2167800" lon="35.2061300">
<ele>612.007935</ele>
<time>2011-04-09T05:36:40.000Z</time>
</trkpt>
<trkpt lat="31.2165700" lon="35.2064000">
<ele>611.550720</ele>
<time>2011-04-09T05:36:45.996Z</time>
</trkpt>
<trkpt lat="31.2161300" lon="35.2071600">
<ele>614.903503</ele>
<time>2011-04-09T05:37:03.000Z</time>
</trkpt>
<trkpt lat="31.2157300" lon="35.2081300">
<ele>621.151917</ele>
<time>2011-04-09T05:37:34.000Z</time>
</trkpt>
<trkpt lat="31.2152800" lon="35.2087900">
<ele>617.311462</ele>
<time>2011-04-09T05:37:53.000Z</time>
</trkpt>
<trkpt lat="31.2139600" lon="35.2113600">
<ele>603.351624</ele>
<time>2011-04-09T05:38:25.996Z</time>
</trkpt>
<trkpt lat="31.2134900" lon="35.2120200">
<ele>607.222534</ele>
<time>2011-04-09T05:38:36.001Z</time>
</trkpt>
<trkpt lat="31.2128100" lon="35.2127800">
<ele>612.007935</ele>
<time>2011-04-09T05:39:15.002Z</time>
</trkpt>
<trkpt lat="31.2119400" lon="35.2136500">
<ele>609.599976</ele>
<time>2011-04-09T05:39:34.001Z</time>
</trkpt>
<trkpt lat="31.2112300" lon="35.2141900">
<ele>612.007935</ele>
<time>2011-04-09T05:39:50.003Z</time>
</trkpt>
<trkpt lat="31.2107100" lon="35.2144800">
<ele>614.903503</ele>
<time>2011-04-09T05:40:06.004Z</time>
</trkpt>
<trkpt lat="31.2091400" lon="35.2146900">
<ele>605.759521</ele>
<time>2011-04-09T05:40:29.004Z</time>
</trkpt>
<trkpt lat="31.2088800" lon="35.2146100">
<ele>607.679749</ele>
<time>2011-04-09T05:40:33.997Z</time>
</trkpt>
<trkpt lat="31.2082800" lon="35.2140300">
<ele>608.167480</ele>
<time>2011-04-09T05:40:52.003Z</time>
</trkpt>
<trkpt lat="31.2077800" lon="35.2134400">
<ele>612.983276</ele>
<time>2011-04-09T05:41:19.997Z</time>
</trkpt>
<trkpt lat="31.2073700" lon="35.2131900">
<ele>613.470947</ele>
<time>2011-04-09T05:41:34.996Z</time>
</trkpt>
<trkpt lat="31.2072500" lon="35.2131900">
<ele>612.983276</ele>
<time>2011-04-09T05:41:38.003Z</time>
</trkpt>
<trkpt lat="31.2069800" lon="35.2132800">
<ele>611.550720</ele>
<time>2011-04-09T05:41:43.999Z</time>
</trkpt>
<trkpt lat="31.2061000" lon="35.2139000">
<ele>602.894409</ele>
<time>2011-04-09T05:42:01.002Z</time>
</trkpt>
<trkpt lat="31.2047500" lon="35.2146900">
<ele>597.103210</ele>
<time>2011-04-09T05:42:20.002Z</time>
</trkpt>
<trkpt lat="31.2044400" lon="35.2147100">
<ele>599.511108</ele>
<time>2011-04-09T05:42:27.000Z</time>
</trkpt>
<trkpt lat="31.2040200" lon="35.2144900">
<ele>600.974121</ele>
<time>2011-04-09T05:42:40.997Z</time>
</trkpt>
<trkpt lat="31.2038000" lon="35.2144900">
<ele>604.814636</ele>
<time>2011-04-09T05:42:52.004Z</time>
</trkpt>
<trkpt lat="31.2031500" lon="35.2148700">
<ele>606.247192</ele>
<time>2011-04-09T05:43:25.000Z</time>
</trkpt>
<trkpt lat="31.2017700" lon="35.2144100">
<ele>620.176575</ele>
<time>2011-04-09T05:44:59.997Z</time>
</trkpt>
<trkpt lat="31.2014800" lon="35.2144400">
<ele>621.639587</ele>
<time>2011-04-09T05:45:17.001Z</time>
</trkpt>
<trkpt lat="31.2003859" lon="35.2156082">
<ele>619.719360</ele>
<time>2011-04-09T05:45:34.004Z</time>
</trkpt>
<trkpt lat="31.2005603" lon="35.2161339">
<ele>619.231689</ele>
<time>2011-04-09T05:45:50.999Z</time>
</trkpt>
<trkpt lat="31.2005891" lon="35.2161500">
<ele>618.744019</ele>
<time>2011-04-09T05:46:05.998Z</time>
</trkpt>
<trkpt lat="31.2003963" lon="35.2155117">
<ele>617.311462</ele>
<time>2011-04-09T05:46:16.003Z</time>
</trkpt>
<trkpt lat="31.2001565" lon="35.2153185">
<ele>608.655151</ele>
<time>2011-04-09T05:47:10.997Z</time>
</trkpt>
<trkpt lat="31.2004200" lon="35.2142600">
<ele>604.814636</ele>
<time>2011-04-09T05:47:15.999Z</time>
</trkpt>
<trkpt lat="31.2003700" lon="35.2139500">
<ele>600.974121</ele>
<time>2011-04-09T05:47:20.000Z</time>
</trkpt>
<trkpt lat="31.2002800" lon="35.2136300">
<ele>598.078552</ele>
<time>2011-04-09T05:47:25.002Z</time>
</trkpt>
<trkpt lat="31.1999000" lon="35.2129200">
<ele>593.262756</ele>
<time>2011-04-09T05:47:37.003Z</time>
</trkpt>
<trkpt lat="31.1996500" lon="35.2126600">
<ele>589.422241</ele>
<time>2011-04-09T05:47:41.997Z</time>
</trkpt>
<trkpt lat="31.1994600" lon="35.2125700">
<ele>585.094055</ele>
<time>2011-04-09T05:47:45.004Z</time>
</trkpt>
<trkpt lat="31.1986700" lon="35.2126500">
<ele>575.492859</ele>
<time>2011-04-09T05:47:55.000Z</time>
</trkpt>
<trkpt lat="31.1984200" lon="35.2125900">
<ele>574.029846</ele>
<time>2011-04-09T05:47:59.001Z</time>
</trkpt>
<trkpt lat="31.1978100" lon="35.2121200">
<ele>563.483765</ele>
<time>2011-04-09T05:48:59.999Z</time>
</trkpt>
<trkpt lat="31.1974800" lon="35.2120600">
<ele>562.020752</ele>
<time>2011-04-09T05:49:06.004Z</time>
</trkpt>
<trkpt lat="31.1965300" lon="35.2120500">
<ele>556.747681</ele>
<time>2011-04-09T05:49:18.998Z</time>
</trkpt>
<trkpt lat="31.1947400" lon="35.2116900">
<ele>567.781433</ele>
<time>2011-04-09T05:50:26.002Z</time>
</trkpt>
<trkpt lat="31.1938700" lon="35.2123000">
<ele>570.677063</ele>
<time>2011-04-09T05:51:17.997Z</time>
</trkpt>
<trkpt lat="31.1927200" lon="35.2127000">
<ele>563.940918</ele>
<time>2011-04-09T05:51:36.996Z</time>
</trkpt>
<trkpt lat="31.1924100" lon="35.2124900">
<ele>564.916321</ele>
<time>2011-04-09T05:51:45.999Z</time>
</trkpt>
<trkpt lat="31.1922900" lon="35.2122600">
<ele>564.916321</ele>
<time>2011-04-09T05:51:52.004Z</time>
</trkpt>
<trkpt lat="31.1916000" lon="35.2113000">
<ele>558.180237</ele>
<time>2011-04-09T05:52:15.997Z</time>
</trkpt>
<trkpt lat="31.1907700" lon="35.2092300">
<ele>540.410400</ele>
<time>2011-04-09T05:52:48.000Z</time>
</trkpt>
<trkpt lat="31.1905400" lon="35.2090600">
<ele>538.490173</ele>
<time>2011-04-09T05:52:53.996Z</time>
</trkpt>
<trkpt lat="31.1894700" lon="35.2085200">
<ele>532.241760</ele>
<time>2011-04-09T05:53:16.996Z</time>
</trkpt>
<trkpt lat="31.1883800" lon="35.2078800">
<ele>530.291077</ele>
<time>2011-04-09T05:53:48.998Z</time>
</trkpt>
<trkpt lat="31.1862400" lon="35.2053400">
<ele>513.953735</ele>
<time>2011-04-09T05:55:05.998Z</time>
</trkpt>
<trkpt lat="31.1856600" lon="35.2045900">
<ele>507.217682</ele>
<time>2011-04-09T05:55:31.002Z</time>
</trkpt>
<trkpt lat="31.1854500" lon="35.2044000">
<ele>509.625610</ele>
<time>2011-04-09T05:55:38.001Z</time>
</trkpt>
<trkpt lat="31.1851400" lon="35.2042300">
<ele>513.008850</ele>
<time>2011-04-09T05:55:54.002Z</time>
</trkpt>
<trkpt lat="31.1842800" lon="35.2044000">
<ele>508.193054</ele>
<time>2011-04-09T05:56:22.998Z</time>
</trkpt>
<trkpt lat="31.1824000" lon="35.2049600">
<ele>492.343445</ele>
<time>2011-04-09T05:57:08.004Z</time>
</trkpt>
<trkpt lat="31.1822100" lon="35.2051200">
<ele>488.960144</ele>
<time>2011-04-09T05:57:15.002Z</time>
</trkpt>
<trkpt lat="31.1821400" lon="35.2052500">
<ele>485.607330</ele>
<time>2011-04-09T05:57:22.000Z</time>
</trkpt>
<trkpt lat="31.1820100" lon="35.2053200">
<ele>482.224060</ele>
<time>2011-04-09T05:58:33.004Z</time>
</trkpt>
<trkpt lat="31.1818000" lon="35.2058600">
<ele>469.270081</ele>
<time>2011-04-09T05:59:23.997Z</time>
</trkpt>
<trkpt lat="31.1817300" lon="35.2064300">
<ele>457.230469</ele>
<time>2011-04-09T05:59:46.997Z</time>
</trkpt>
<trkpt lat="31.1816600" lon="35.2065300">
<ele>455.797913</ele>
<time>2011-04-09T05:59:50.004Z</time>
</trkpt>
<trkpt lat="31.1815200" lon="35.2065900">
<ele>452.932800</ele>
<time>2011-04-09T05:59:54.004Z</time>
</trkpt>
<trkpt lat="31.1808500" lon="35.2065400">
<ele>441.380859</ele>
<time>2011-04-09T06:00:09.996Z</time>
</trkpt>
<trkpt lat="31.1786400" lon="35.2065500">
<ele>420.715454</ele>
<time>2011-04-09T06:01:07.003Z</time>
</trkpt>
<trkpt lat="31.1785500" lon="35.2065100">
<ele>419.282867</ele>
<time>2011-04-09T06:02:24.003Z</time>
</trkpt>
<trkpt lat="31.1773100" lon="35.2065000">
<ele>407.243286</ele>
<time>2011-04-09T06:02:50.001Z</time>
</trkpt>
<trkpt lat="31.1770100" lon="35.2065400">
<ele>402.915131</ele>
<time>2011-04-09T06:02:55.997Z</time>
</trkpt>
<trkpt lat="31.1767000" lon="35.2067600">
<ele>399.074646</ele>
<time>2011-04-09T06:03:03.004Z</time>
</trkpt>
<trkpt lat="31.1756400" lon="35.2080200">
<ele>383.225067</ele>
<time>2011-04-09T06:03:30.997Z</time>
</trkpt>
<trkpt lat="31.1752200" lon="35.2085600">
<ele>371.215942</ele>
<time>2011-04-09T06:03:49.003Z</time>
</trkpt>
<trkpt lat="31.1750800" lon="35.2088200">
<ele>365.912415</ele>
<time>2011-04-09T06:03:57.997Z</time>
</trkpt>
<trkpt lat="31.1748800" lon="35.2089200">
<ele>362.559601</ele>
<time>2011-04-09T06:04:04.996Z</time>
</trkpt>
<trkpt lat="31.1741400" lon="35.2087200">
<ele>350.550476</ele>
<time>2011-04-09T06:04:20.997Z</time>
</trkpt>
<trkpt lat="31.1734300" lon="35.2083700">
<ele>343.326721</ele>
<time>2011-04-09T06:04:39.003Z</time>
</trkpt>
<trkpt lat="31.1726000" lon="35.2081100">
<ele>329.397339</ele>
<time>2011-04-09T06:04:58.996Z</time>
</trkpt>
<trkpt lat="31.1722400" lon="35.2080100">
<ele>324.093842</ele>
<time>2011-04-09T06:05:07.999Z</time>
</trkpt>
<trkpt lat="31.1712500" lon="35.2078600">
<ele>317.845459</ele>
<time>2011-04-09T06:05:25.996Z</time>
</trkpt>
<trkpt lat="31.1705700" lon="35.2078400">
<ele>312.084717</ele>
<time>2011-04-09T06:05:37.003Z</time>
</trkpt>
<trkpt lat="31.1681200" lon="35.2080100">
<ele>284.195526</ele>
<time>2011-04-09T06:06:16.004Z</time>
</trkpt>
<trkpt lat="31.1651000" lon="35.2085100">
<ele>241.919769</ele>
<time>2011-04-09T06:07:14.998Z</time>
</trkpt>
<trkpt lat="31.1640500" lon="35.2088500">
<ele>243.352325</ele>
<time>2011-04-09T06:07:35.000Z</time>
</trkpt>
<trkpt lat="31.1637500" lon="35.2090000">
<ele>239.999527</ele>
<time>2011-04-09T06:07:40.996Z</time>
</trkpt>
<trkpt lat="31.1616300" lon="35.2103300">
<ele>224.119431</ele>
<time>2011-04-09T06:08:11.996Z</time>
</trkpt>
<trkpt lat="31.1596900" lon="35.2117900">
<ele>204.886566</ele>
<time>2011-04-09T06:08:46.003Z</time>
</trkpt>
<trkpt lat="31.1594800" lon="35.2117600">
<ele>207.782166</ele>
<time>2011-04-09T06:08:58.004Z</time>
</trkpt>
<trkpt lat="31.1584400" lon="35.2110800">
<ele>201.046066</ele>
<time>2011-04-09T06:09:44.997Z</time>
</trkpt>
<trkpt lat="31.1572400" lon="35.2104000">
<ele>193.365128</ele>
<time>2011-04-09T06:10:18.002Z</time>
</trkpt>
<trkpt lat="31.1570100" lon="35.2101200">
<ele>194.797668</ele>
<time>2011-04-09T06:10:33.001Z</time>
</trkpt>
<trkpt lat="31.1565000" lon="35.2092100">
<ele>198.180969</ele>
<time>2011-04-09T06:11:06.999Z</time>
</trkpt>
<trkpt lat="31.1552100" lon="35.2082200">
<ele>187.116730</ele>
<time>2011-04-09T06:11:47.003Z</time>
</trkpt>
<trkpt lat="31.1535600" lon="35.2070700">
<ele>181.356003</ele>
<time>2011-04-09T06:23:29.003Z</time>
</trkpt>
<trkpt lat="31.1531400" lon="35.2071200">
<ele>180.868332</ele>
<time>2011-04-09T06:23:38.999Z</time>
</trkpt>
<trkpt lat="31.1517400" lon="35.2092000">
<ele>176.052475</ele>
<time>2011-04-09T06:24:28.999Z</time>
</trkpt>
<trkpt lat="31.1490900" lon="35.2126900">
<ele>168.859207</ele>
<time>2011-04-09T06:25:37.998Z</time>
</trkpt>
<trkpt lat="31.1487000" lon="35.2135900">
<ele>168.371521</ele>
<time>2011-04-09T06:25:52.997Z</time>
</trkpt>
<trkpt lat="31.1484200" lon="35.2155000">
<ele>164.531036</ele>
<time>2011-04-09T06:26:19.003Z</time>
</trkpt>
<trkpt lat="31.1481900" lon="35.2183000">
<ele>160.202866</ele>
<time>2011-04-09T06:26:56.000Z</time>
</trkpt>
<trkpt lat="31.1480400" lon="35.2186200">
<ele>159.227524</ele>
<time>2011-04-09T06:27:01.002Z</time>
</trkpt>
<trkpt lat="31.1469600" lon="35.2200400">
<ele>157.307266</ele>
<time>2011-04-09T06:27:29.998Z</time>
</trkpt>
<trkpt lat="31.1466800" lon="35.2202200">
<ele>157.794968</ele>
<time>2011-04-09T06:27:36.003Z</time>
</trkpt>
<trkpt lat="31.1463700" lon="35.2203400">
<ele>159.227524</ele>
<time>2011-04-09T06:27:47.002Z</time>
</trkpt>
<trkpt lat="31.1461300" lon="35.2207900">
<ele>158.282639</ele>
<time>2011-04-09T06:28:00.998Z</time>
</trkpt>
<trkpt lat="31.1456900" lon="35.2219400">
<ele>158.282639</ele>
<time>2011-04-09T06:28:25.000Z</time>
</trkpt>
<trkpt lat="31.1453100" lon="35.2227000">
<ele>155.387039</ele>
<time>2011-04-09T06:28:38.997Z</time>
</trkpt>
<trkpt lat="31.1451100" lon="35.2237600">
<ele>154.442169</ele>
<time>2011-04-09T06:28:54.998Z</time>
</trkpt>
<trkpt lat="31.1454900" lon="35.2283000">
<ele>148.193756</ele>
<time>2011-04-09T06:29:55.997Z</time>
</trkpt>
<trkpt lat="31.1454100" lon="35.2290200">
<ele>148.193756</ele>
<time>2011-04-09T06:30:05.000Z</time>
</trkpt>
<trkpt lat="31.1447700" lon="35.2305400">
<ele>154.442169</ele>
<time>2011-04-09T06:30:48.001Z</time>
</trkpt>
<trkpt lat="31.1446800" lon="35.2310200">
<ele>158.282639</ele>
<time>2011-04-09T06:31:03.000Z</time>
</trkpt>
<trkpt lat="31.1447300" lon="35.2314700">
<ele>158.282639</ele>
<time>2011-04-09T06:31:15.001Z</time>
</trkpt>
<trkpt lat="31.1459700" lon="35.2340400">
<ele>152.979111</ele>
<time>2011-04-09T06:32:02.003Z</time>
</trkpt>
<trkpt lat="31.1460500" lon="35.2347800">
<ele>150.113998</ele>
<time>2011-04-09T06:32:10.997Z</time>
</trkpt>
<trkpt lat="31.1460200" lon="35.2350400">
<ele>148.193756</ele>
<time>2011-04-09T06:32:14.004Z</time>
</trkpt>
<trkpt lat="31.1456400" lon="35.2359200">
<ele>144.810486</ele>
<time>2011-04-09T06:32:25.002Z</time>
</trkpt>
<trkpt lat="31.1454100" lon="35.2361700">
<ele>143.865601</ele>
<time>2011-04-09T06:32:29.003Z</time>
</trkpt>
<trkpt lat="31.1446100" lon="35.2365300">
<ele>144.810486</ele>
<time>2011-04-09T06:32:41.997Z</time>
</trkpt>
<trkpt lat="31.1439300" lon="35.2365200">
<ele>147.706085</ele>
<time>2011-04-09T06:33:00.003Z</time>
</trkpt>
<trkpt lat="31.1434200" lon="35.2362500">
<ele>149.626312</ele>
<time>2011-04-09T06:33:15.002Z</time>
</trkpt>
<trkpt lat="31.1430000" lon="35.2357100">
<ele>152.034241</ele>
<time>2011-04-09T06:33:34.001Z</time>
</trkpt>
<trkpt lat="31.1428700" lon="35.2352200">
<ele>154.899368</ele>
<time>2011-04-09T06:33:50.003Z</time>
</trkpt>
<trkpt lat="31.1423300" lon="35.2346200">
<ele>157.794968</ele>
<time>2011-04-09T06:34:21.996Z</time>
</trkpt>
<trkpt lat="31.1418800" lon="35.2342300">
<ele>157.794968</ele>
<time>2011-04-09T06:34:37.998Z</time>
</trkpt>
<trkpt lat="31.1413800" lon="35.2336200">
<ele>158.282639</ele>
<time>2011-04-09T06:34:57.999Z</time>
</trkpt>
<trkpt lat="31.1407000" lon="35.2329500">
<ele>159.227524</ele>
<time>2011-04-09T06:35:27.997Z</time>
</trkpt>
<trkpt lat="31.1403900" lon="35.2325500">
<ele>161.147766</ele>
<time>2011-04-09T06:35:49.001Z</time>
</trkpt>
<trkpt lat="31.1402600" lon="35.2320900">
<ele>162.610794</ele>
<time>2011-04-09T06:36:05.003Z</time>
</trkpt>
<trkpt lat="31.1402400" lon="35.2313900">
<ele>163.555679</ele>
<time>2011-04-09T06:36:27.000Z</time>
</trkpt>
<trkpt lat="31.1400900" lon="35.2307300">
<ele>164.531036</ele>
<time>2011-04-09T06:36:45.999Z</time>
</trkpt>
<trkpt lat="31.1399000" lon="35.2301900">
<ele>165.475922</ele>
<time>2011-04-09T06:37:03.003Z</time>
</trkpt>
<trkpt lat="31.1395900" lon="35.2296900">
<ele>166.451279</ele>
<time>2011-04-09T06:37:22.996Z</time>
</trkpt>
<trkpt lat="31.1391800" lon="35.2292600">
<ele>167.883835</ele>
<time>2011-04-09T06:37:44.000Z</time>
</trkpt>
<trkpt lat="31.1383900" lon="35.2282100">
<ele>170.779434</ele>
<time>2011-04-09T06:38:55.997Z</time>
</trkpt>
<trkpt lat="31.1382300" lon="35.2280600">
<ele>172.212006</ele>
<time>2011-04-09T06:39:09.000Z</time>
</trkpt>
<trkpt lat="31.1379300" lon="35.2280200">
<ele>172.699677</ele>
<time>2011-04-09T06:39:22.003Z</time>
</trkpt>
<trkpt lat="31.1369400" lon="35.2283800">
<ele>184.221130</ele>
<time>2011-04-09T06:40:24.004Z</time>
</trkpt>
<trkpt lat="31.1365800" lon="35.2284700">
<ele>185.684158</ele>
<time>2011-04-09T06:40:51.997Z</time>
</trkpt>
<trkpt lat="31.1355400" lon="35.2285200">
<ele>190.012329</ele>
<time>2011-04-09T06:41:44.002Z</time>
</trkpt>
<trkpt lat="31.1352700" lon="35.2286600">
<ele>190.957199</ele>
<time>2011-04-09T06:41:57.998Z</time>
</trkpt>
<trkpt lat="31.1323500" lon="35.2331600">
<ele>216.926163</ele>
<time>2011-04-09T06:47:44.998Z</time>
</trkpt>
<trkpt lat="31.1313100" lon="35.2349600">
<ele>206.349594</ele>
<time>2011-04-09T06:48:10.002Z</time>
</trkpt>
<trkpt lat="31.1307500" lon="35.2356400">
<ele>212.110321</ele>
<time>2011-04-09T06:48:30.004Z</time>
</trkpt>
<trkpt lat="31.1287700" lon="35.2387800">
<ele>244.784866</ele>
<time>2011-04-09T06:52:44.996Z</time>
</trkpt>
<trkpt lat="31.1285900" lon="35.2389400">
<ele>248.625366</ele>
<time>2011-04-09T06:53:04.998Z</time>
</trkpt>
<trkpt lat="31.1258900" lon="35.2403900">
<ele>265.937988</ele>
<time>2011-04-09T06:55:57.996Z</time>
</trkpt>
<trkpt lat="31.1256200" lon="35.2406000">
<ele>270.266174</ele>
<time>2011-04-09T06:56:24.996Z</time>
</trkpt>
<trkpt lat="31.1249100" lon="35.2415000">
<ele>269.778473</ele>
<time>2011-04-09T06:56:59.997Z</time>
</trkpt>
<trkpt lat="31.1236800" lon="35.2454100">
<ele>261.609833</ele>
<time>2011-04-09T07:02:02.000Z</time>
</trkpt>
<trkpt lat="31.1231500" lon="35.2506500">
<ele>237.103928</ele>
<time>2011-04-09T07:03:00.000Z</time>
</trkpt>
<trkpt lat="31.1231400" lon="35.2507700">
<ele>237.103928</ele>
<time>2011-04-09T07:03:01.996Z</time>
</trkpt>
<trkpt lat="31.1229900" lon="35.2509000">
<ele>236.616241</ele>
<time>2011-04-09T07:03:06.998Z</time>
</trkpt>
<trkpt lat="31.1203300" lon="35.2508000">
<ele>234.208328</ele>
<time>2011-04-09T07:04:15.997Z</time>
</trkpt>
<trkpt lat="31.1198400" lon="35.2508300">
<ele>236.128571</ele>
<time>2011-04-09T07:04:34.997Z</time>
</trkpt>
<trkpt lat="31.1191600" lon="35.2507800">
<ele>239.999527</ele>
<time>2011-04-09T07:05:08.002Z</time>
</trkpt>
<trkpt lat="31.1178900" lon="35.2507700">
<ele>250.545593</ele>
<time>2011-04-09T07:06:41.003Z</time>
</trkpt>
<trkpt lat="31.1176300" lon="35.2508600">
<ele>250.088394</ele>
<time>2011-04-09T07:07:00.002Z</time>
</trkpt>
<trkpt lat="31.1171000" lon="35.2512300">
<ele>246.247925</ele>
<time>2011-04-09T07:07:16.997Z</time>
</trkpt>
<trkpt lat="31.1167900" lon="35.2512500">
<ele>248.625366</ele>
<time>2011-04-09T07:07:39.003Z</time>
</trkpt>
<trkpt lat="31.1163600" lon="35.2514700">
<ele>250.545593</ele>
<time>2011-04-09T07:08:06.996Z</time>
</trkpt>
<trkpt lat="31.1160600" lon="35.2514900">
<ele>252.008636</ele>
<time>2011-04-09T07:08:26.998Z</time>
</trkpt>
<trkpt lat="31.1155900" lon="35.2516400">
<ele>253.928879</ele>
<time>2011-04-09T07:10:08.000Z</time>
</trkpt>
<trkpt lat="31.1150900" lon="35.2515000">
<ele>257.281677</ele>
<time>2011-04-09T07:10:37.998Z</time>
</trkpt>
<trkpt lat="31.1148300" lon="35.2515400">
<ele>260.664978</ele>
<time>2011-04-09T07:10:56.997Z</time>
</trkpt>
<trkpt lat="31.1143200" lon="35.2517800">
<ele>264.017761</ele>
<time>2011-04-09T07:11:38.996Z</time>
</trkpt>
<trkpt lat="31.1141200" lon="35.2521200">
<ele>270.753845</ele>
<time>2011-04-09T07:12:09.003Z</time>
</trkpt>
<trkpt lat="31.1139900" lon="35.2520600">
<ele>273.161774</ele>
<time>2011-04-09T07:12:23.000Z</time>
</trkpt>
<trkpt lat="31.1138000" lon="35.2522000">
<ele>273.618958</ele>
<time>2011-04-09T07:13:03.996Z</time>
</trkpt>
<trkpt lat="31.1136600" lon="35.2522300">
<ele>269.778473</ele>
<time>2011-04-09T07:13:15.004Z</time>
</trkpt>
<trkpt lat="31.1134900" lon="35.2521500">
<ele>266.425659</ele>
<time>2011-04-09T07:13:22.002Z</time>
</trkpt>
<trkpt lat="31.1126100" lon="35.2522900">
<ele>254.416565</ele>
<time>2011-04-09T07:13:41.002Z</time>
</trkpt>
<trkpt lat="31.1123900" lon="35.2522800">
<ele>254.416565</ele>
<time>2011-04-09T07:13:45.002Z</time>
</trkpt>
<trkpt lat="31.1118100" lon="35.2519500">
<ele>254.873764</ele>
<time>2011-04-09T07:13:58.999Z</time>
</trkpt>
<trkpt lat="31.1103600" lon="35.2508500">
<ele>255.361435</ele>
<time>2011-04-09T07:14:43.996Z</time>
</trkpt>
<trkpt lat="31.1101500" lon="35.2506000">
<ele>255.849121</ele>
<time>2011-04-09T07:14:51.996Z</time>
</trkpt>
<trkpt lat="31.1088900" lon="35.2495500">
<ele>256.824463</ele>
<time>2011-04-09T07:15:40.000Z</time>
</trkpt>
<trkpt lat="31.1069600" lon="35.2483200">
<ele>258.257050</ele>
<time>2011-04-09T07:17:17.002Z</time>
</trkpt>
<trkpt lat="31.1051900" lon="35.2470600">
<ele>264.993134</ele>
<time>2011-04-09T07:18:57.001Z</time>
</trkpt>
<trkpt lat="31.1028000" lon="35.2455200">
<ele>277.489929</ele>
<time>2011-04-09T07:23:51.003Z</time>
</trkpt>
<trkpt lat="31.1024200" lon="35.2451400">
<ele>291.906952</ele>
<time>2011-04-09T07:25:51.997Z</time>
</trkpt>
<trkpt lat="31.1022000" lon="35.2450000">
<ele>300.075592</ele>
<time>2011-04-09T07:27:20.998Z</time>
</trkpt>
<trkpt lat="31.1020300" lon="35.2447600">
<ele>310.164459</ele>
<time>2011-04-09T07:28:53.999Z</time>
</trkpt>
<trkpt lat="31.1013900" lon="35.2439600">
<ele>323.606140</ele>
<time>2011-04-09T07:34:15.001Z</time>
</trkpt>
<trkpt lat="31.1012500" lon="35.2437800">
<ele>326.014069</ele>
<time>2011-04-09T07:34:28.004Z</time>
</trkpt>
<trkpt lat="31.0989100" lon="35.2417200">
<ele>339.486267</ele>
<time>2011-04-09T07:37:02.997Z</time>
</trkpt>
<trkpt lat="31.0983000" lon="35.2410700">
<ele>338.510864</ele>
<time>2011-04-09T07:37:24.001Z</time>
</trkpt>
<trkpt lat="31.0967100" lon="35.2378800">
<ele>336.590668</ele>
<time>2011-04-09T07:39:01.002Z</time>
</trkpt>
<trkpt lat="31.0961400" lon="35.2366000">
<ele>341.894135</ele>
<time>2011-04-09T07:39:40.997Z</time>
</trkpt>
<trkpt lat="31.0959600" lon="35.2364300">
<ele>345.734650</ele>
<time>2011-04-09T07:39:59.003Z</time>
</trkpt>
<trkpt lat="31.0957700" lon="35.2361200">
<ele>346.679535</ele>
<time>2011-04-09T07:40:19.998Z</time>
</trkpt>
<trkpt lat="31.0947700" lon="35.2340100">
<ele>353.415588</ele>
<time>2011-04-09T07:41:55.997Z</time>
</trkpt>
<trkpt lat="31.0944200" lon="35.2334700">
<ele>351.983063</ele>
<time>2011-04-09T07:42:14.003Z</time>
</trkpt>
<trkpt lat="31.0910200" lon="35.2291200">
<ele>338.510864</ele>
<time>2011-04-09T07:44:25.002Z</time>
</trkpt>
<trkpt lat="31.0908600" lon="35.2290000">
<ele>341.406464</ele>
<time>2011-04-09T07:44:37.997Z</time>
</trkpt>
<trkpt lat="31.0902500" lon="35.2290100">
<ele>344.759277</ele>
<time>2011-04-09T07:45:12.997Z</time>
</trkpt>
<trkpt lat="31.0890300" lon="35.2287300">
<ele>339.973938</ele>
<time>2011-04-09T07:45:49.000Z</time>
</trkpt>
<trkpt lat="31.0883200" lon="35.2283900">
<ele>340.918793</ele>
<time>2011-04-09T07:46:03.999Z</time>
</trkpt>
<trkpt lat="31.0876900" lon="35.2278400">
<ele>343.814392</ele>
<time>2011-04-09T07:46:18.998Z</time>
</trkpt>
<trkpt lat="31.0871300" lon="35.2272300">
<ele>349.575134</ele>
<time>2011-04-09T07:46:49.999Z</time>
</trkpt>
<trkpt lat="31.0865800" lon="35.2269200">
<ele>345.734650</ele>
<time>2011-04-09T07:47:08.998Z</time>
</trkpt>
<trkpt lat="31.0860200" lon="35.2267600">
<ele>343.814392</ele>
<time>2011-04-09T07:47:20.999Z</time>
</trkpt>
<trkpt lat="31.0845500" lon="35.2273200">
<ele>349.087463</ele>
<time>2011-04-09T07:48:10.999Z</time>
</trkpt>
<trkpt lat="31.0839200" lon="35.2276100">
<ele>348.630249</ele>
<time>2011-04-09T07:48:31.000Z</time>
</trkpt>
<trkpt lat="31.0820500" lon="35.2279800">
<ele>344.759277</ele>
<time>2011-04-09T07:49:18.002Z</time>
</trkpt>
<trkpt lat="31.0819600" lon="35.2281900">
<ele>344.759277</ele>
<time>2011-04-09T07:49:23.998Z</time>
</trkpt>
<trkpt lat="31.0819300" lon="35.2288000">
<ele>342.381866</ele>
<time>2011-04-09T07:49:48.000Z</time>
</trkpt>
<trkpt lat="31.0819300" lon="35.2292300">
<ele>341.894135</ele>
<time>2011-04-09T07:53:02.996Z</time>
</trkpt>
<trkpt lat="31.0824500" lon="35.2303400">
<ele>347.167206</ele>
<time>2011-04-09T07:53:38.999Z</time>
</trkpt>
<trkpt lat="31.0848900" lon="35.2360200">
<ele>352.470734</ele>
<time>2011-04-09T07:56:34.002Z</time>
</trkpt>
<trkpt lat="31.0849000" lon="35.2364800">
<ele>350.550476</ele>
<time>2011-04-09T07:56:45.001Z</time>
</trkpt>
<trkpt lat="31.0846800" lon="35.2416200">
<ele>363.992157</ele>
<time>2011-04-09T07:59:20.003Z</time>
</trkpt>
<trkpt lat="31.0846600" lon="35.2430400">
<ele>366.400085</ele>
<time>2011-04-09T07:59:51.003Z</time>
</trkpt>
<trkpt lat="31.0847600" lon="35.2438500">
<ele>364.479858</ele>
<time>2011-04-09T08:00:06.002Z</time>
</trkpt>
<trkpt lat="31.0852900" lon="35.2464700">
<ele>342.381866</ele>
<time>2011-04-09T08:00:40.000Z</time>
</trkpt>
<trkpt lat="31.0857300" lon="35.2482900">
<ele>335.158081</ele>
<time>2011-04-09T08:01:00.002Z</time>
</trkpt>
<trkpt lat="31.0860300" lon="35.2500600">
<ele>337.078339</ele>
<time>2011-04-09T08:01:27.002Z</time>
</trkpt>
<trkpt lat="31.0859600" lon="35.2503200">
<ele>335.158081</ele>
<time>2011-04-09T08:01:31.996Z</time>
</trkpt>
<trkpt lat="31.0841600" lon="35.2542600">
<ele>328.421997</ele>
<time>2011-04-09T08:02:53.998Z</time>
</trkpt>
<trkpt lat="31.0835600" lon="35.2559800">
<ele>321.685913</ele>
<time>2011-04-09T08:03:32.999Z</time>
</trkpt>
<trkpt lat="31.0830800" lon="35.2577900">
<ele>330.342255</ele>
<time>2011-04-09T08:04:33.004Z</time>
</trkpt>
<trkpt lat="31.0829000" lon="35.2589200">
<ele>321.228729</ele>
<time>2011-04-09T08:04:53.999Z</time>
</trkpt>
<trkpt lat="31.0828500" lon="35.2598400">
<ele>328.909668</ele>
<time>2011-04-09T08:05:20.999Z</time>
</trkpt>
<trkpt lat="31.0824600" lon="35.2631200">
<ele>330.342255</ele>
<time>2011-04-09T08:06:48.997Z</time>
</trkpt>
<trkpt lat="31.0822200" lon="35.2635000">
<ele>332.262482</ele>
<time>2011-04-09T08:07:00.998Z</time>
</trkpt>
<trkpt lat="31.0816200" lon="35.2639100">
<ele>333.725525</ele>
<time>2011-04-09T08:07:19.998Z</time>
</trkpt>
<trkpt lat="31.0805900" lon="35.2644800">
<ele>332.750153</ele>
<time>2011-04-09T08:07:50.998Z</time>
</trkpt>
<trkpt lat="31.0800200" lon="35.2650400">
<ele>336.102936</ele>
<time>2011-04-09T08:08:20.996Z</time>
</trkpt>
<trkpt lat="31.0796200" lon="35.2651400">
<ele>337.078339</ele>
<time>2011-04-09T08:08:39.002Z</time>
</trkpt>
<trkpt lat="31.0795300" lon="35.2652100">
<ele>336.590668</ele>
<time>2011-04-09T08:08:44.998Z</time>
</trkpt>
<trkpt lat="31.0795200" lon="35.2651600">
<ele>338.053680</ele>
<time>2011-04-09T08:11:56.003Z</time>
</trkpt>
<trkpt lat="31.0784800" lon="35.2657600">
<ele>330.342255</ele>
<time>2011-04-09T08:12:34.001Z</time>
</trkpt>
<trkpt lat="31.0783500" lon="35.2658700">
<ele>330.342255</ele>
<time>2011-04-09T08:12:43.004Z</time>
</trkpt>
<trkpt lat="31.0781200" lon="35.2662700">
<ele>326.501740</ele>
<time>2011-04-09T08:13:39.000Z</time>
</trkpt>
<trkpt lat="31.0780300" lon="35.2668800">
<ele>323.148956</ele>
<time>2011-04-09T08:13:45.998Z</time>
</trkpt>
<trkpt lat="31.0781800" lon="35.2672800">
<ele>324.093842</ele>
<time>2011-04-09T08:13:55.001Z</time>
</trkpt>
<trkpt lat="31.0794200" lon="35.2681700">
<ele>324.093842</ele>
<time>2011-04-09T08:14:31.998Z</time>
</trkpt>
<trkpt lat="31.0796900" lon="35.2682900">
<ele>323.148956</ele>
<time>2011-04-09T08:14:38.003Z</time>
</trkpt>
<trkpt lat="31.0803500" lon="35.2684700">
<ele>321.685913</ele>
<time>2011-04-09T08:14:50.997Z</time>
</trkpt>
<trkpt lat="31.0805000" lon="35.2685900">
<ele>322.661285</ele>
<time>2011-04-09T08:14:54.997Z</time>
</trkpt>
<trkpt lat="31.0806800" lon="35.2690500">
<ele>325.556885</ele>
<time>2011-04-09T08:15:09.996Z</time>
</trkpt>
<trkpt lat="31.0806400" lon="35.2693400">
<ele>325.069214</ele>
<time>2011-04-09T08:15:18.999Z</time>
</trkpt>
<trkpt lat="31.0800600" lon="35.2701500">
<ele>317.357758</ele>
<time>2011-04-09T08:15:35.001Z</time>
</trkpt>
<trkpt lat="31.0799300" lon="35.2708500">
<ele>313.517273</ele>
<time>2011-04-09T08:15:44.004Z</time>
</trkpt>
<trkpt lat="31.0798000" lon="35.2719700">
<ele>315.925201</ele>
<time>2011-04-09T08:16:06.001Z</time>
</trkpt>
<trkpt lat="31.0795500" lon="35.2722500">
<ele>317.357758</ele>
<time>2011-04-09T08:16:23.998Z</time>
</trkpt>
<trkpt lat="31.0791100" lon="35.2724900">
<ele>316.900543</ele>
<time>2011-04-09T08:16:39.999Z</time>
</trkpt>
<trkpt lat="31.0790800" lon="35.2725800">
<ele>315.925201</ele>
<time>2011-04-09T08:16:42.004Z</time>
</trkpt>
<trkpt lat="31.0791000" lon="35.2734000">
<ele>313.060059</ele>
<time>2011-04-09T08:16:53.003Z</time>
</trkpt>
<trkpt lat="31.0791600" lon="35.2736200">
<ele>314.492645</ele>
<time>2011-04-09T08:16:57.003Z</time>
</trkpt>
<trkpt lat="31.0792800" lon="35.2738800">
<ele>314.492645</ele>
<time>2011-04-09T08:17:02.999Z</time>
</trkpt>
<trkpt lat="31.0794300" lon="35.2739900">
<ele>314.004944</ele>
<time>2011-04-09T08:17:21.998Z</time>
</trkpt>
<trkpt lat="31.0794800" lon="35.2742000">
<ele>314.004944</ele>
<time>2011-04-09T08:18:05.000Z</time>
</trkpt>
<trkpt lat="31.0799300" lon="35.2746900">
<ele>308.731934</ele>
<time>2011-04-09T08:18:15.998Z</time>
</trkpt>
<trkpt lat="31.0800500" lon="35.2749800">
<ele>306.324005</ele>
<time>2011-04-09T08:18:19.999Z</time>
</trkpt>
<trkpt lat="31.0800600" lon="35.2755400">
<ele>303.428406</ele>
<time>2011-04-09T08:18:26.004Z</time>
</trkpt>
<trkpt lat="31.0797000" lon="35.2767300">
<ele>302.940735</ele>
<time>2011-04-09T08:18:41.996Z</time>
</trkpt>
<trkpt lat="31.0796800" lon="35.2769400">
<ele>303.428406</ele>
<time>2011-04-09T08:18:45.996Z</time>
</trkpt>
<trkpt lat="31.0797400" lon="35.2773100">
<ele>302.483521</ele>
<time>2011-04-09T08:18:53.004Z</time>
</trkpt>
<trkpt lat="31.0796100" lon="35.2777400">
<ele>300.563263</ele>
<time>2011-04-09T08:19:00.002Z</time>
</trkpt>
<trkpt lat="31.0790300" lon="35.2783400">
<ele>300.563263</ele>
<time>2011-04-09T08:19:12.996Z</time>
</trkpt>
<trkpt lat="31.0785600" lon="35.2784700">
<ele>301.020477</ele>
<time>2011-04-09T08:19:23.002Z</time>
</trkpt>
<trkpt lat="31.0782500" lon="35.2788100">
<ele>298.155365</ele>
<time>2011-04-09T08:20:22.004Z</time>
</trkpt>
<trkpt lat="31.0779300" lon="35.2803000">
<ele>300.563263</ele>
<time>2011-04-09T08:21:19.002Z</time>
</trkpt>
<trkpt lat="31.0776700" lon="35.2811600">
<ele>299.100250</ele>
<time>2011-04-09T08:21:38.002Z</time>
</trkpt>
<trkpt lat="31.0776700" lon="35.2814600">
<ele>297.667664</ele>
<time>2011-04-09T08:21:47.998Z</time>
</trkpt>
<trkpt lat="31.0782200" lon="35.2819300">
<ele>293.339539</ele>
<time>2011-04-09T08:22:45.998Z</time>
</trkpt>
<trkpt lat="31.0789600" lon="35.2823300">
<ele>295.747437</ele>
<time>2011-04-09T08:23:00.004Z</time>
</trkpt>
<trkpt lat="31.0803200" lon="35.2828300">
<ele>288.066467</ele>
<time>2011-04-09T08:23:20.999Z</time>
</trkpt>
<trkpt lat="31.0806100" lon="35.2831300">
<ele>284.683197</ele>
<time>2011-04-09T08:23:27.004Z</time>
</trkpt>
<trkpt lat="31.0810500" lon="35.2844900">
<ele>287.578796</ele>
<time>2011-04-09T08:23:53.002Z</time>
</trkpt>
<trkpt lat="31.0810100" lon="35.2852900">
<ele>279.410156</ele>
<time>2011-04-09T08:25:15.004Z</time>
</trkpt>
<trkpt lat="31.0807300" lon="35.2878600">
<ele>261.609833</ele>
<time>2011-04-09T08:25:39.999Z</time>
</trkpt>
<trkpt lat="31.0807800" lon="35.2881700">
<ele>260.177277</ele>
<time>2011-04-09T08:25:44.000Z</time>
</trkpt>
<trkpt lat="31.0810200" lon="35.2887800">
<ele>258.744720</ele>
<time>2011-04-09T08:25:53.003Z</time>
</trkpt>
<trkpt lat="31.0809700" lon="35.2890200">
<ele>255.361435</ele>
<time>2011-04-09T08:25:57.003Z</time>
</trkpt>
<trkpt lat="31.0807000" lon="35.2893000">
<ele>248.625366</ele>
<time>2011-04-09T08:26:01.997Z</time>
</trkpt>
<trkpt lat="31.0805600" lon="35.2895800">
<ele>247.680466</ele>
<time>2011-04-09T08:26:05.997Z</time>
</trkpt>
<trkpt lat="31.0802800" lon="35.2922700">
<ele>228.447601</ele>
<time>2011-04-09T08:26:55.003Z</time>
</trkpt>
<trkpt lat="31.0803700" lon="35.2927900">
<ele>221.254333</ele>
<time>2011-04-09T08:27:02.002Z</time>
</trkpt>
<trkpt lat="31.0801900" lon="35.2940100">
<ele>216.926163</ele>
<time>2011-04-09T08:27:17.001Z</time>
</trkpt>
<trkpt lat="31.0802000" lon="35.2942900">
<ele>214.518234</ele>
<time>2011-04-09T08:27:19.999Z</time>
</trkpt>
<trkpt lat="31.0801400" lon="35.2948000">
<ele>215.463135</ele>
<time>2011-04-09T08:27:26.004Z</time>
</trkpt>
<trkpt lat="31.0802200" lon="35.2952000">
<ele>215.950806</ele>
<time>2011-04-09T08:27:32.000Z</time>
</trkpt>
<trkpt lat="31.0802800" lon="35.2952700">
<ele>215.463135</ele>
<time>2011-04-09T08:27:34.004Z</time>
</trkpt>
<trkpt lat="31.0802000" lon="35.2956200">
<ele>214.518234</ele>
<time>2011-04-09T08:27:41.996Z</time>
</trkpt>
<trkpt lat="31.0800900" lon="35.2956900">
<ele>213.542877</ele>
<time>2011-04-09T08:28:32.998Z</time>
</trkpt>
<trkpt lat="31.0799900" lon="35.2958600">
<ele>212.598007</ele>
<time>2011-04-09T08:28:39.003Z</time>
</trkpt>
<trkpt lat="31.0798200" lon="35.2974000">
<ele>208.757523</ele>
<time>2011-04-09T08:28:59.998Z</time>
</trkpt>
<trkpt lat="31.0797200" lon="35.2979400">
<ele>205.374237</ele>
<time>2011-04-09T08:29:06.996Z</time>
</trkpt>
<trkpt lat="31.0797400" lon="35.2982700">
<ele>206.349594</ele>
<time>2011-04-09T08:29:10.997Z</time>
</trkpt>
<trkpt lat="31.0800000" lon="35.2991800">
<ele>209.214722</ele>
<time>2011-04-09T08:29:29.003Z</time>
</trkpt>
<trkpt lat="31.0799700" lon="35.2993500">
<ele>207.782166</ele>
<time>2011-04-09T08:29:32.001Z</time>
</trkpt>
<trkpt lat="31.0796600" lon="35.2998600">
<ele>206.349594</ele>
<time>2011-04-09T08:29:40.001Z</time>
</trkpt>
<trkpt lat="31.0795200" lon="35.3006000">
<ele>205.861923</ele>
<time>2011-04-09T08:29:51.000Z</time>
</trkpt>
<trkpt lat="31.0795300" lon="35.3012600">
<ele>203.453995</ele>
<time>2011-04-09T08:30:01.999Z</time>
</trkpt>
<trkpt lat="31.0795500" lon="35.3021100">
<ele>202.021439</ele>
<time>2011-04-09T08:30:15.002Z</time>
</trkpt>
<trkpt lat="31.0796200" lon="35.3027400">
<ele>201.046066</ele>
<time>2011-04-09T08:30:27.003Z</time>
</trkpt>
<trkpt lat="31.0796800" lon="35.3028800">
<ele>200.101196</ele>
<time>2011-04-09T08:30:30.001Z</time>
</trkpt>
<trkpt lat="31.0798100" lon="35.3030500">
<ele>198.638168</ele>
<time>2011-04-09T08:30:34.001Z</time>
</trkpt>
<trkpt lat="31.0800700" lon="35.3031600">
<ele>195.773041</ele>
<time>2011-04-09T08:30:39.004Z</time>
</trkpt>
<trkpt lat="31.0805800" lon="35.3031900">
<ele>190.957199</ele>
<time>2011-04-09T08:30:46.996Z</time>
</trkpt>
<trkpt lat="31.0808500" lon="35.3032800">
<ele>185.684158</ele>
<time>2011-04-09T08:30:53.001Z</time>
</trkpt>
<trkpt lat="31.0811600" lon="35.3036800">
<ele>178.460403</ele>
<time>2011-04-09T08:31:01.001Z</time>
</trkpt>
<trkpt lat="31.0812400" lon="35.3040100">
<ele>176.052475</ele>
<time>2011-04-09T08:31:05.002Z</time>
</trkpt>
<trkpt lat="31.0812700" lon="35.3047200">
<ele>171.267120</ele>
<time>2011-04-09T08:31:12.000Z</time>
</trkpt>
<trkpt lat="31.0811200" lon="35.3057500">
<ele>166.938965</ele>
<time>2011-04-09T08:31:22.999Z</time>
</trkpt>
<trkpt lat="31.0813100" lon="35.3068400">
<ele>161.635437</ele>
<time>2011-04-09T08:31:35.000Z</time>
</trkpt>
<trkpt lat="31.0812300" lon="35.3086400">
<ele>151.058884</ele>
<time>2011-04-09T08:31:56.004Z</time>
</trkpt>
<trkpt lat="31.0811500" lon="35.3092000">
<ele>148.193756</ele>
<time>2011-04-09T08:32:02.000Z</time>
</trkpt>
<trkpt lat="31.0812400" lon="35.3096300">
<ele>151.546570</ele>
<time>2011-04-09T08:32:07.996Z</time>
</trkpt>
<trkpt lat="31.0814700" lon="35.3101000">
<ele>152.034241</ele>
<time>2011-04-09T08:32:20.999Z</time>
</trkpt>
<trkpt lat="31.0816500" lon="35.3108300">
<ele>151.546570</ele>
<time>2011-04-09T08:32:38.003Z</time>
</trkpt>
<trkpt lat="31.0810600" lon="35.3131600">
<ele>130.393433</ele>
<time>2011-04-09T08:33:04.000Z</time>
</trkpt>
<trkpt lat="31.0803100" lon="35.3148600">
<ele>122.712479</ele>
<time>2011-04-09T08:33:25.004Z</time>
</trkpt>
<trkpt lat="31.0801000" lon="35.3156500">
<ele>110.215683</ele>
<time>2011-04-09T08:33:35.001Z</time>
</trkpt>
<trkpt lat="31.0800800" lon="35.3158000">
<ele>109.240318</ele>
<time>2011-04-09T08:33:36.996Z</time>
</trkpt>
<trkpt lat="31.0801200" lon="35.3161000">
<ele>106.375198</ele>
<time>2011-04-09T08:33:41.999Z</time>
</trkpt>
<trkpt lat="31.0805500" lon="35.3170900">
<ele>90.495117</ele>
<time>2011-04-09T08:33:55.002Z</time>
</trkpt>
<trkpt lat="31.0805500" lon="35.3173500">
<ele>90.982803</ele>
<time>2011-04-09T08:33:59.003Z</time>
</trkpt>
<trkpt lat="31.0803400" lon="35.3181000">
<ele>88.574883</ele>
<time>2011-04-09T08:34:08.999Z</time>
</trkpt>
<trkpt lat="31.0794800" lon="35.3194600">
<ele>71.749916</ele>
<time>2011-04-09T08:34:27.998Z</time>
</trkpt>
<trkpt lat="31.0792300" lon="35.3197900">
<ele>67.909439</ele>
<time>2011-04-09T08:34:33.001Z</time>
</trkpt>
<trkpt lat="31.0790300" lon="35.3199400">
<ele>66.476883</ele>
<time>2011-04-09T08:34:35.999Z</time>
</trkpt>
<trkpt lat="31.0788100" lon="35.3202200">
<ele>65.013840</ele>
<time>2011-04-09T08:34:39.999Z</time>
</trkpt>
<trkpt lat="31.0786100" lon="35.3208600">
<ele>61.661041</ele>
<time>2011-04-09T08:34:46.998Z</time>
</trkpt>
<trkpt lat="31.0781600" lon="35.3219900">
<ele>61.173359</ele>
<time>2011-04-09T08:35:01.003Z</time>
</trkpt>
<trkpt lat="31.0776400" lon="35.3229000">
<ele>59.740799</ele>
<time>2011-04-09T08:35:19.000Z</time>
</trkpt>
<trkpt lat="31.0776000" lon="35.3231500">
<ele>59.253117</ele>
<time>2011-04-09T08:35:28.997Z</time>
</trkpt>
<trkpt lat="31.0776300" lon="35.3232000">
<ele>57.820560</ele>
<time>2011-04-09T08:36:14.996Z</time>
</trkpt>
<trkpt lat="31.0776000" lon="35.3237400">
<ele>56.845200</ele>
<time>2011-04-09T08:36:26.004Z</time>
</trkpt>
<trkpt lat="31.0774100" lon="35.3241300">
<ele>52.517040</ele>
<time>2011-04-09T08:36:33.002Z</time>
</trkpt>
<trkpt lat="31.0767100" lon="35.3245300">
<ele>43.403519</ele>
<time>2011-04-09T08:36:44.001Z</time>
</trkpt>
<trkpt lat="31.0764300" lon="35.3246100">
<ele>40.507919</ele>
<time>2011-04-09T08:36:49.003Z</time>
</trkpt>
<trkpt lat="31.0760000" lon="35.3246000">
<ele>35.692078</ele>
<time>2011-04-09T08:36:57.997Z</time>
</trkpt>
<trkpt lat="31.0758800" lon="35.3247100">
<ele>32.339279</ele>
<time>2011-04-09T08:37:04.996Z</time>
</trkpt>
<trkpt lat="31.0758400" lon="35.3249300">
<ele>30.906721</ele>
<time>2011-04-09T08:37:09.998Z</time>
</trkpt>
<trkpt lat="31.0754600" lon="35.3257200">
<ele>26.578560</ele>
<time>2011-04-09T08:37:23.002Z</time>
</trkpt>
<trkpt lat="31.0752500" lon="35.3259500">
<ele>23.682959</ele>
<time>2011-04-09T08:37:28.004Z</time>
</trkpt>
<trkpt lat="31.0747700" lon="35.3261500">
<ele>17.922239</ele>
<time>2011-04-09T08:37:36.998Z</time>
</trkpt>
<trkpt lat="31.0740200" lon="35.3270300">
<ele>0.609600</ele>
<time>2011-04-09T08:38:02.996Z</time>
</trkpt>
<trkpt lat="31.0739600" lon="35.3272300">
<ele>-1.798320</ele>
<time>2011-04-09T08:38:06.996Z</time>
</trkpt>
<trkpt lat="31.0739500" lon="35.3277800">
<ele>-8.503920</ele>
<time>2011-04-09T08:38:22.004Z</time>
</trkpt>
<trkpt lat="31.0738500" lon="35.3279000">
<ele>-11.399521</ele>
<time>2011-04-09T08:38:28.000Z</time>
</trkpt>
<trkpt lat="31.0734600" lon="35.3277800">
<ele>-17.647921</ele>
<time>2011-04-09T08:38:37.997Z</time>
</trkpt>
<trkpt lat="31.0733100" lon="35.3276600">
<ele>-21.000721</ele>
<time>2011-04-09T08:38:41.997Z</time>
</trkpt>
<trkpt lat="31.0730500" lon="35.3273100">
<ele>-26.791920</ele>
<time>2011-04-09T08:38:52.002Z</time>
</trkpt>
<trkpt lat="31.0728100" lon="35.3271600">
<ele>-32.064960</ele>
<time>2011-04-09T08:39:00.003Z</time>
</trkpt>
<trkpt lat="31.0727600" lon="35.3273400">
<ele>-36.393120</ele>
<time>2011-04-09T08:39:05.999Z</time>
</trkpt>
<trkpt lat="31.0728600" lon="35.3277800">
<ele>-42.153839</ele>
<time>2011-04-09T08:39:16.004Z</time>
</trkpt>
<trkpt lat="31.0729000" lon="35.3278700">
<ele>-42.641518</ele>
<time>2011-04-09T08:39:23.996Z</time>
</trkpt>
<trkpt lat="31.0730800" lon="35.3279900">
<ele>-45.049442</ele>
<time>2011-04-09T08:40:22.999Z</time>
</trkpt>
<trkpt lat="31.0734500" lon="35.3284800">
<ele>-50.322483</ele>
<time>2011-04-09T08:40:43.000Z</time>
</trkpt>
<trkpt lat="31.0735500" lon="35.3286800">
<ele>-54.162960</ele>
<time>2011-04-09T08:40:48.003Z</time>
</trkpt>
<trkpt lat="31.0735600" lon="35.3289300">
<ele>-57.546242</ele>
<time>2011-04-09T08:40:55.001Z</time>
</trkpt>
<trkpt lat="31.0733900" lon="35.3289800">
<ele>-61.386719</ele>
<time>2011-04-09T08:41:00.997Z</time>
</trkpt>
<trkpt lat="31.0729400" lon="35.3286300">
<ele>-68.122803</ele>
<time>2011-04-09T08:41:11.996Z</time>
</trkpt>
<trkpt lat="31.0727000" lon="35.3285800">
<ele>-72.450958</ele>
<time>2011-04-09T08:41:18.001Z</time>
</trkpt>
<trkpt lat="31.0724900" lon="35.3289800">
<ele>-79.644234</ele>
<time>2011-04-09T08:41:27.997Z</time>
</trkpt>
<trkpt lat="31.0723700" lon="35.3294000">
<ele>-85.404961</ele>
<time>2011-04-09T08:41:38.003Z</time>
</trkpt>
<trkpt lat="31.0720900" lon="35.3294600">
<ele>-86.867996</ele>
<time>2011-04-09T08:41:43.999Z</time>
</trkpt>
<trkpt lat="31.0717400" lon="35.3293000">
<ele>-87.355682</ele>
<time>2011-04-09T08:41:53.002Z</time>
</trkpt>
<trkpt lat="31.0716800" lon="35.3294200">
<ele>-89.275917</ele>
<time>2011-04-09T08:41:57.002Z</time>
</trkpt>
<trkpt lat="31.0724100" lon="35.3297500">
<ele>-92.628716</ele>
<time>2011-04-09T08:42:17.997Z</time>
</trkpt>
<trkpt lat="31.0731100" lon="35.3302700">
<ele>-100.309685</ele>
<time>2011-04-09T08:42:40.003Z</time>
</trkpt>
<trkpt lat="31.0735600" lon="35.3300900">
<ele>-100.797363</ele>
<time>2011-04-09T08:42:51.002Z</time>
</trkpt>
<trkpt lat="31.0737600" lon="35.3301800">
<ele>-100.309685</ele>
<time>2011-04-09T08:43:00.998Z</time>
</trkpt>
<trkpt lat="31.0737700" lon="35.3304600">
<ele>-103.692963</ele>
<time>2011-04-09T08:43:10.001Z</time>
</trkpt>
<trkpt lat="31.0735700" lon="35.3309800">
<ele>-113.294167</ele>
<time>2011-04-09T08:43:22.002Z</time>
</trkpt>
<trkpt lat="31.0736200" lon="35.3312400">
<ele>-114.726715</ele>
<time>2011-04-09T08:43:26.996Z</time>
</trkpt>
<trkpt lat="31.0738100" lon="35.3315400">
<ele>-120.030235</ele>
<time>2011-04-09T08:43:33.001Z</time>
</trkpt>
<trkpt lat="31.0739200" lon="35.3318700">
<ele>-126.278633</ele>
<time>2011-04-09T08:43:38.997Z</time>
</trkpt>
<trkpt lat="31.0740100" lon="35.3320000">
<ele>-128.686569</ele>
<time>2011-04-09T08:43:42.004Z</time>
</trkpt>
<trkpt lat="31.0740400" lon="35.3322700">
<ele>-132.527039</ele>
<time>2011-04-09T08:43:48.000Z</time>
</trkpt>
<trkpt lat="31.0737700" lon="35.3323100">
<ele>-136.367523</ele>
<time>2011-04-09T08:43:53.996Z</time>
</trkpt>
<trkpt lat="31.0734100" lon="35.3321400">
<ele>-141.671036</ele>
<time>2011-04-09T08:44:00.001Z</time>
</trkpt>
<trkpt lat="31.0731100" lon="35.3321100">
<ele>-146.456406</ele>
<time>2011-04-09T08:44:05.004Z</time>
</trkpt>
<trkpt lat="31.0730400" lon="35.3322400">
<ele>-149.352005</ele>
<time>2011-04-09T08:44:08.002Z</time>
</trkpt>
<trkpt lat="31.0729300" lon="35.3330300">
<ele>-160.873444</ele>
<time>2011-04-09T08:44:19.000Z</time>
</trkpt>
<trkpt lat="31.0732500" lon="35.3336600">
<ele>-159.440872</ele>
<time>2011-04-09T08:44:31.001Z</time>
</trkpt>
<trkpt lat="31.0732100" lon="35.3338000">
<ele>-158.008331</ele>
<time>2011-04-09T08:44:36.004Z</time>
</trkpt>
<trkpt lat="31.0727700" lon="35.3341700">
<ele>-154.625031</ele>
<time>2011-04-09T08:44:54.001Z</time>
</trkpt>
<trkpt lat="31.0720200" lon="35.3349500">
<ele>-153.680161</ele>
<time>2011-04-09T08:45:26.997Z</time>
</trkpt>
<trkpt lat="31.0717800" lon="35.3351200">
<ele>-155.600403</ele>
<time>2011-04-09T08:45:32.000Z</time>
</trkpt>
<trkpt lat="31.0715500" lon="35.3351800">
<ele>-156.088074</ele>
<time>2011-04-09T08:45:36.000Z</time>
</trkpt>
<trkpt lat="31.0710800" lon="35.3350600">
<ele>-157.032959</ele>
<time>2011-04-09T08:45:44.001Z</time>
</trkpt>
<trkpt lat="31.0708500" lon="35.3350700">
<ele>-158.953201</ele>
<time>2011-04-09T08:45:48.001Z</time>
</trkpt>
<trkpt lat="31.0705000" lon="35.3354900">
<ele>-158.953201</ele>
<time>2011-04-09T08:45:57.997Z</time>
</trkpt>
<trkpt lat="31.0703200" lon="35.3360800">
<ele>-158.008331</ele>
<time>2011-04-09T08:46:12.996Z</time>
</trkpt>
<trkpt lat="31.0702000" lon="35.3362300">
<ele>-158.465530</ele>
<time>2011-04-09T08:46:17.999Z</time>
</trkpt>
<trkpt lat="31.0700900" lon="35.3366600">
<ele>-156.545273</ele>
<time>2011-04-09T08:46:31.002Z</time>
</trkpt>
<trkpt lat="31.0703900" lon="35.3366400">
<ele>-152.704803</ele>
<time>2011-04-09T08:46:48.999Z</time>
</trkpt>
<trkpt lat="31.0705600" lon="35.3368600">
<ele>-152.217117</ele>
<time>2011-04-09T08:47:18.004Z</time>
</trkpt>
<trkpt lat="31.0701300" lon="35.3372700">
<ele>-159.440872</ele>
<time>2011-04-09T08:48:46.002Z</time>
</trkpt>
<trkpt lat="31.0692800" lon="35.3378300">
<ele>-168.097198</ele>
<time>2011-04-09T08:49:02.004Z</time>
</trkpt>
<trkpt lat="31.0687300" lon="35.3380900">
<ele>-174.345596</ele>
<time>2011-04-09T08:49:12.000Z</time>
</trkpt>
<trkpt lat="31.0681200" lon="35.3382600">
<ele>-182.026566</ele>
<time>2011-04-09T08:49:25.003Z</time>
</trkpt>
<trkpt lat="31.0681700" lon="35.3384800">
<ele>-184.434479</ele>
<time>2011-04-09T08:49:33.997Z</time>
</trkpt>
<trkpt lat="31.0686200" lon="35.3387700">
<ele>-186.354721</ele>
<time>2011-04-09T08:49:44.996Z</time>
</trkpt>
<trkpt lat="31.0690600" lon="35.3389200">
<ele>-192.603134</ele>
<time>2011-04-09T08:49:53.999Z</time>
</trkpt>
<trkpt lat="31.0693700" lon="35.3388900">
<ele>-197.906631</ele>
<time>2011-04-09T08:50:03.002Z</time>
</trkpt>
<trkpt lat="31.0698800" lon="35.3386900">
<ele>-205.099930</ele>
<time>2011-04-09T08:51:04.000Z</time>
</trkpt>
<trkpt lat="31.0703100" lon="35.3384200">
<ele>-210.403442</ele>
<time>2011-04-09T08:51:10.999Z</time>
</trkpt>
<trkpt lat="31.0710300" lon="35.3382300">
<ele>-213.268570</ele>
<time>2011-04-09T08:51:28.002Z</time>
</trkpt>
<trkpt lat="31.0715300" lon="35.3382500">
<ele>-212.780869</ele>
<time>2011-04-09T08:51:39.001Z</time>
</trkpt>
<trkpt lat="31.0723200" lon="35.3386400">
<ele>-217.109039</ele>
<time>2011-04-09T08:51:54.000Z</time>
</trkpt>
<trkpt lat="31.0724600" lon="35.3387300">
<ele>-218.084396</ele>
<time>2011-04-09T08:51:56.998Z</time>
</trkpt>
<trkpt lat="31.0726800" lon="35.3390000">
<ele>-219.516968</ele>
<time>2011-04-09T08:52:02.001Z</time>
</trkpt>
<trkpt lat="31.0726800" lon="35.3394000">
<ele>-220.979996</ele>
<time>2011-04-09T08:52:07.997Z</time>
</trkpt>
<trkpt lat="31.0719100" lon="35.3401000">
<ele>-228.660965</ele>
<time>2011-04-09T08:52:22.996Z</time>
</trkpt>
<trkpt lat="31.0718400" lon="35.3402000">
<ele>-229.605835</ele>
<time>2011-04-09T08:52:25.000Z</time>
</trkpt>
<trkpt lat="31.0720000" lon="35.3403600">
<ele>-230.093521</ele>
<time>2011-04-09T08:52:30.003Z</time>
</trkpt>
<trkpt lat="31.0729100" lon="35.3400900">
<ele>-228.173279</ele>
<time>2011-04-09T08:52:48.000Z</time>
</trkpt>
<trkpt lat="31.0731700" lon="35.3401300">
<ele>-231.068878</ele>
<time>2011-04-09T08:52:53.003Z</time>
</trkpt>
<trkpt lat="31.0735100" lon="35.3401000">
<ele>-235.397034</ele>
<time>2011-04-09T08:52:58.999Z</time>
</trkpt>
<trkpt lat="31.0744900" lon="35.3393900">
<ele>-233.476807</ele>
<time>2011-04-09T08:53:20.003Z</time>
</trkpt>
<trkpt lat="31.0747800" lon="35.3394100">
<ele>-234.421677</ele>
<time>2011-04-09T08:53:28.003Z</time>
</trkpt>
<trkpt lat="31.0748700" lon="35.3397200">
<ele>-238.749832</ele>
<time>2011-04-09T08:53:33.999Z</time>
</trkpt>
<trkpt lat="31.0748200" lon="35.3400400">
<ele>-242.590332</ele>
<time>2011-04-09T08:53:39.002Z</time>
</trkpt>
<trkpt lat="31.0745400" lon="35.3406000">
<ele>-246.430801</ele>
<time>2011-04-09T08:54:15.998Z</time>
</trkpt>
<trkpt lat="31.0743900" lon="35.3407400">
<ele>-247.893829</ele>
<time>2011-04-09T08:54:19.999Z</time>
</trkpt>
<trkpt lat="31.0739300" lon="35.3409700">
<ele>-249.326401</ele>
<time>2011-04-09T08:54:30.997Z</time>
</trkpt>
<trkpt lat="31.0736400" lon="35.3413500">
<ele>-249.326401</ele>
<time>2011-04-09T08:54:41.003Z</time>
</trkpt>
<trkpt lat="31.0735400" lon="35.3415300">
<ele>-250.271271</ele>
<time>2011-04-09T08:54:45.003Z</time>
</trkpt>
<trkpt lat="31.0732200" lon="35.3425500">
<ele>-252.222000</ele>
<time>2011-04-09T09:00:56.998Z</time>
</trkpt>
<trkpt lat="31.0725800" lon="35.3436600">
<ele>-254.599442</ele>
<time>2011-04-09T09:01:26.003Z</time>
</trkpt>
<trkpt lat="31.0718700" lon="35.3444600">
<ele>-249.326401</ele>
<time>2011-04-09T09:02:00.001Z</time>
</trkpt>
<trkpt lat="31.0716600" lon="35.3450000">
<ele>-250.758957</ele>
<time>2011-04-09T09:02:13.998Z</time>
</trkpt>
<trkpt lat="31.0714700" lon="35.3466500">
<ele>-250.271271</ele>
<time>2011-04-09T09:02:46.000Z</time>
</trkpt>
<trkpt lat="31.0713400" lon="35.3473900">
<ele>-244.022873</ele>
<time>2011-04-09T09:03:33.002Z</time>
</trkpt>
<trkpt lat="31.0713900" lon="35.3479900">
<ele>-244.510559</ele>
<time>2011-04-09T09:03:50.999Z</time>
</trkpt>
<trkpt lat="31.0715400" lon="35.3489700">
<ele>-246.918472</ele>
<time>2011-04-09T09:04:11.001Z</time>
</trkpt>
<trkpt lat="31.0715600" lon="35.3498600">
<ele>-247.893829</ele>
<time>2011-04-09T09:04:27.002Z</time>
</trkpt>
<trkpt lat="31.0712600" lon="35.3509000">
<ele>-249.326401</ele>
<time>2011-04-09T09:04:44.999Z</time>
</trkpt>
<trkpt lat="31.0707900" lon="35.3521800">
<ele>-251.246643</ele>
<time>2011-04-09T09:05:09.001Z</time>
</trkpt>
<trkpt lat="31.0705400" lon="35.3530200">
<ele>-252.222000</ele>
<time>2011-04-09T09:05:26.998Z</time>
</trkpt>
<trkpt lat="31.0707000" lon="35.3532600">
<ele>-253.166870</ele>
<time>2011-04-09T09:05:36.001Z</time>
</trkpt>
<trkpt lat="31.0718700" lon="35.3534000">
<ele>-253.654556</ele>
<time>2011-04-09T09:06:07.001Z</time>
</trkpt>
<trkpt lat="31.0759200" lon="35.3519500">
<ele>-252.222000</ele>
<time>2011-04-09T09:07:48.996Z</time>
</trkpt>
<trkpt lat="31.0774400" lon="35.3518200">
<ele>-252.679199</ele>
<time>2011-04-09T09:08:22.001Z</time>
</trkpt>
<trkpt lat="31.0781100" lon="35.3517100">
<ele>-252.679199</ele>
<time>2011-04-09T09:08:35.998Z</time>
</trkpt>
<trkpt lat="31.0783500" lon="35.3519000">
<ele>-253.166870</ele>
<time>2011-04-09T09:08:46.003Z</time>
</trkpt>
<trkpt lat="31.0784200" lon="35.3542400">
<ele>-257.495026</ele>
<time>2011-04-09T09:10:08.999Z</time>
</trkpt>
<trkpt lat="31.0785000" lon="35.3553100">
<ele>-258.470398</ele>
<time>2011-04-09T09:10:26.003Z</time>
</trkpt>
<trkpt lat="31.0785600" lon="35.3555700">
<ele>-259.415283</ele>
<time>2011-04-09T09:10:30.003Z</time>
</trkpt>
<trkpt lat="31.0784700" lon="35.3561800">
<ele>-261.335541</ele>
<time>2011-04-09T09:10:38.997Z</time>
</trkpt>
<trkpt lat="31.0781800" lon="35.3571800">
<ele>-261.823212</ele>
<time>2011-04-09T09:10:56.001Z</time>
</trkpt>
<trkpt lat="31.0778700" lon="35.3580400">
<ele>-260.390625</ele>
<time>2011-04-09T09:11:13.998Z</time>
</trkpt>
<trkpt lat="31.0776400" lon="35.3588500">
<ele>-262.768066</ele>
<time>2011-04-09T09:11:29.999Z</time>
</trkpt>
<trkpt lat="31.0772200" lon="35.3599700">
<ele>-262.310883</ele>
<time>2011-04-09T09:11:51.003Z</time>
</trkpt>
<trkpt lat="31.0771700" lon="35.3601800">
<ele>-262.310883</ele>
<time>2011-04-09T09:11:55.003Z</time>
</trkpt>
<trkpt lat="31.0771800" lon="35.3604500">
<ele>-262.310883</ele>
<time>2011-04-09T09:11:59.997Z</time>
</trkpt>
<trkpt lat="31.0773900" lon="35.3618500">
<ele>-262.310883</ele>
<time>2011-04-09T09:12:26.997Z</time>
</trkpt>
<trkpt lat="31.0778300" lon="35.3631200">
<ele>-262.310883</ele>
<time>2011-04-09T09:12:53.004Z</time>
</trkpt>
<trkpt lat="31.0787900" lon="35.3665300">
<ele>-261.823212</ele>
<time>2011-04-09T09:14:06.003Z</time>
</trkpt>
<trkpt lat="31.0792700" lon="35.3695600">
<ele>-260.847839</ele>
<time>2011-04-09T09:15:09.999Z</time>
</trkpt>
<trkpt lat="31.0797600" lon="35.3711900">
<ele>-258.927612</ele>
<time>2011-04-09T09:15:53.001Z</time>
</trkpt>
<trkpt lat="31.0804200" lon="35.3742900">
<ele>-253.654556</ele>
<time>2011-04-09T09:17:16.999Z</time>
</trkpt>
<trkpt lat="31.0805500" lon="35.3749500">
<ele>-252.222000</ele>
<time>2011-04-09T09:17:35.998Z</time>
</trkpt>
<trkpt lat="31.0806000" lon="35.3754800">
<ele>-250.758957</ele>
<time>2011-04-09T09:17:51.999Z</time>
</trkpt>
<trkpt lat="31.0806200" lon="35.3768800">
<ele>-246.918472</ele>
<time>2011-04-09T09:19:37.001Z</time>
</trkpt>
<trkpt lat="31.0807300" lon="35.3772300">
<ele>-246.430801</ele>
<time>2011-04-09T09:19:54.998Z</time>
</trkpt>
<trkpt lat="31.0808300" lon="35.3780100">
<ele>-244.510559</ele>
<time>2011-04-09T09:20:29.999Z</time>
</trkpt>
<trkpt lat="31.0807600" lon="35.3788200">
<ele>-241.157761</ele>
<time>2011-04-09T09:21:07.998Z</time>
</trkpt>
<trkpt lat="31.0809600" lon="35.3792000">
<ele>-239.725204</ele>
<time>2011-04-09T09:21:29.002Z</time>
</trkpt>
<trkpt lat="31.0811900" lon="35.3794700">
<ele>-237.774475</ele>
<time>2011-04-09T09:21:46.999Z</time>
</trkpt>
<trkpt lat="31.0819100" lon="35.3801200">
<ele>-226.740723</ele>
<time>2011-04-09T09:23:14.004Z</time>
</trkpt>
<trkpt lat="31.0819300" lon="35.3804700">
<ele>-222.900238</ele>
<time>2011-04-09T09:23:40.001Z</time>
</trkpt>
<trkpt lat="31.0817600" lon="35.3810000">
<ele>-220.004639</ele>
<time>2011-04-09T09:24:16.998Z</time>
</trkpt>
<trkpt lat="31.0821700" lon="35.3813400">
<ele>-213.268570</ele>
<time>2011-04-09T09:25:08.000Z</time>
</trkpt>
<trkpt lat="31.0824400" lon="35.3816700">
<ele>-204.612244</ele>
<time>2011-04-09T09:25:48.996Z</time>
</trkpt>
<trkpt lat="31.0827700" lon="35.3822100">
<ele>-198.363831</ele>
<time>2011-04-09T09:26:47.999Z</time>
</trkpt>
<trkpt lat="31.0828300" lon="35.3824200">
<ele>-196.443604</ele>
<time>2011-04-09T09:27:05.996Z</time>
</trkpt>
<trkpt lat="31.0828000" lon="35.3829100">
<ele>-192.603134</ele>
<time>2011-04-09T09:27:44.997Z</time>
</trkpt>
<trkpt lat="31.0828600" lon="35.3832100">
<ele>-190.195206</ele>
<time>2011-04-09T09:28:06.001Z</time>
</trkpt>
<trkpt lat="31.0828400" lon="35.3834900">
<ele>-189.250320</ele>
<time>2011-04-09T09:28:26.003Z</time>
</trkpt>
<trkpt lat="31.0827800" lon="35.3836700">
<ele>-187.330078</ele>
<time>2011-04-09T09:28:41.002Z</time>
</trkpt>
<trkpt lat="31.0827800" lon="35.3846100">
<ele>-189.250320</ele>
<time>2011-04-09T09:29:28.997Z</time>
</trkpt>
<trkpt lat="31.0827300" lon="35.3847600">
<ele>-190.195206</ele>
<time>2011-04-09T09:30:42.998Z</time>
</trkpt>
<trkpt lat="31.0816500" lon="35.3837600">
<ele>-181.538879</ele>
<time>2011-04-09T09:32:59.001Z</time>
</trkpt>
<trkpt lat="31.0811100" lon="35.3835200">
<ele>-172.913040</ele>
<time>2011-04-09T09:33:59.999Z</time>
</trkpt>
<trkpt lat="31.0805900" lon="35.3838500">
<ele>-169.529770</ele>
<time>2011-04-09T09:34:47.001Z</time>
</trkpt>
<trkpt lat="31.0805100" lon="35.3840300">
<ele>-167.121841</ele>
<time>2011-04-09T09:35:04.998Z</time>
</trkpt>
<trkpt lat="31.0805100" lon="35.3843300">
<ele>-163.769043</ele>
<time>2011-04-09T09:35:31.004Z</time>
</trkpt>
<trkpt lat="31.0805700" lon="35.3838700">
<ele>-168.584869</ele>
<time>2011-04-09T09:37:17.000Z</time>
</trkpt>
<trkpt lat="31.0800500" lon="35.3841300">
<ele>-167.609528</ele>
<time>2011-04-09T09:37:48.000Z</time>
</trkpt>
<trkpt lat="31.0797100" lon="35.3844700">
<ele>-167.609528</ele>
<time>2011-04-09T09:38:05.997Z</time>
</trkpt>
<trkpt lat="31.0792800" lon="35.3847800">
<ele>-169.529770</ele>
<time>2011-04-09T09:38:19.000Z</time>
</trkpt>
<trkpt lat="31.0781800" lon="35.3852000">
<ele>-172.913040</ele>
<time>2011-04-09T09:38:36.997Z</time>
</trkpt>
<trkpt lat="31.0777100" lon="35.3855500">
<ele>-170.017441</ele>
<time>2011-04-09T09:38:52.999Z</time>
</trkpt>
<trkpt lat="31.0766400" lon="35.3859800">
<ele>-171.449997</ele>
<time>2011-04-09T09:39:17.001Z</time>
</trkpt>
<trkpt lat="31.0762600" lon="35.3863100">
<ele>-169.529770</ele>
<time>2011-04-09T09:39:42.998Z</time>
</trkpt>
<trkpt lat="31.0767300" lon="35.3859600">
<ele>-169.529770</ele>
<time>2011-04-09T09:45:33.998Z</time>
</trkpt>
<trkpt lat="31.0774100" lon="35.3857200">
<ele>-168.584869</ele>
<time>2011-04-09T09:45:50.000Z</time>
</trkpt>
<trkpt lat="31.0781700" lon="35.3852500">
<ele>-170.962326</ele>
<time>2011-04-09T09:46:11.004Z</time>
</trkpt>
<trkpt lat="31.0795200" lon="35.3846800">
<ele>-166.664642</ele>
<time>2011-04-09T09:46:39.999Z</time>
</trkpt>
<trkpt lat="31.0800300" lon="35.3842000">
<ele>-166.176956</ele>
<time>2011-04-09T09:47:09.004Z</time>
</trkpt>
<trkpt lat="31.0810300" lon="35.3836200">
<ele>-170.017441</ele>
<time>2011-04-09T09:47:33.999Z</time>
</trkpt>
<trkpt lat="31.0813600" lon="35.3835800">
<ele>-172.425369</ele>
<time>2011-04-09T09:47:40.004Z</time>
</trkpt>
<trkpt lat="31.0816200" lon="35.3837200">
<ele>-176.753525</ele>
<time>2011-04-09T09:47:43.996Z</time>
</trkpt>
<trkpt lat="31.0823800" lon="35.3843600">
<ele>-184.922165</ele>
<time>2011-04-09T09:47:55.003Z</time>
</trkpt>
<trkpt lat="31.0826000" lon="35.3846400">
<ele>-186.354721</ele>
<time>2011-04-09T09:47:59.004Z</time>
</trkpt>
<trkpt lat="31.0828200" lon="35.3846000">
<ele>-185.867035</ele>
<time>2011-04-09T09:48:05.000Z</time>
</trkpt>
<trkpt lat="31.0828500" lon="35.3831100">
<ele>-188.274963</ele>
<time>2011-04-09T09:48:37.996Z</time>
</trkpt>
<trkpt lat="31.0828100" lon="35.3822800">
<ele>-194.523361</ele>
<time>2011-04-09T09:48:50.999Z</time>
</trkpt>
<trkpt lat="31.0826200" lon="35.3818900">
<ele>-197.906631</ele>
<time>2011-04-09T09:48:57.997Z</time>
</trkpt>
<trkpt lat="31.0822000" lon="35.3813300">
<ele>-207.507843</ele>
<time>2011-04-09T09:49:09.998Z</time>
</trkpt>
<trkpt lat="31.0817700" lon="35.3810000">
<ele>-215.676468</ele>
<time>2011-04-09T09:49:21.999Z</time>
</trkpt>
<trkpt lat="31.0819600" lon="35.3803700">
<ele>-220.492325</ele>
<time>2011-04-09T09:49:32.998Z</time>
</trkpt>
<trkpt lat="31.0819000" lon="35.3800400">
<ele>-223.845123</ele>
<time>2011-04-09T09:49:50.002Z</time>
</trkpt>
<trkpt lat="31.0813300" lon="35.3796000">
<ele>-233.476807</ele>
<time>2011-04-09T09:51:15.002Z</time>
</trkpt>
<trkpt lat="31.0807900" lon="35.3789000">
<ele>-238.262161</ele>
<time>2011-04-09T09:51:26.001Z</time>
</trkpt>
<trkpt lat="31.0808200" lon="35.3774300">
<ele>-242.590332</ele>
<time>2011-04-09T09:51:46.002Z</time>
</trkpt>
<trkpt lat="31.0807200" lon="35.3771000">
<ele>-243.565674</ele>
<time>2011-04-09T09:51:50.996Z</time>
</trkpt>
<trkpt lat="31.0808400" lon="35.3768100">
<ele>-244.998230</ele>
<time>2011-04-09T09:51:58.997Z</time>
</trkpt>
<trkpt lat="31.0815400" lon="35.3774500">
<ele>-244.022873</ele>
<time>2011-04-09T09:52:17.003Z</time>
</trkpt>
<trkpt lat="31.0819000" lon="35.3780100">
<ele>-241.645432</ele>
<time>2011-04-09T09:52:33.004Z</time>
</trkpt>
<trkpt lat="31.0829100" lon="35.3788600">
<ele>-238.262161</ele>
<time>2011-04-09T09:53:10.000Z</time>
</trkpt>
<trkpt lat="31.0834200" lon="35.3791000">
<ele>-237.317276</ele>
<time>2011-04-09T09:53:27.004Z</time>
</trkpt>
<trkpt lat="31.0854000" lon="35.3797100">
<ele>-232.013763</ele>
<time>2011-04-09T09:54:21.997Z</time>
</trkpt>
<trkpt lat="31.0859700" lon="35.3797400">
<ele>-232.013763</ele>
<time>2011-04-09T09:54:37.999Z</time>
</trkpt>
<trkpt lat="31.0875700" lon="35.3799900">
<ele>-226.740723</ele>
<time>2011-04-09T09:55:30.996Z</time>
</trkpt>
<trkpt lat="31.0881000" lon="35.3801800">
<ele>-225.277679</ele>
<time>2011-04-09T09:55:53.003Z</time>
</trkpt>
<trkpt lat="31.0886300" lon="35.3803100">
<ele>-222.900238</ele>
<time>2011-04-09T09:56:13.998Z</time>
</trkpt>
<trkpt lat="31.0901700" lon="35.3802400">
<ele>-222.900238</ele>
<time>2011-04-09T09:56:51.996Z</time>
</trkpt>
<trkpt lat="31.0914900" lon="35.3799200">
<ele>-223.845123</ele>
<time>2011-04-09T09:57:23.999Z</time>
</trkpt>
<trkpt lat="31.0918300" lon="35.3796000">
<ele>-226.253036</ele>
<time>2011-04-09T09:57:49.997Z</time>
</trkpt>
<trkpt lat="31.0921000" lon="35.3794400">
<ele>-227.228394</ele>
<time>2011-04-09T09:57:56.002Z</time>
</trkpt>
<trkpt lat="31.0927600" lon="35.3793100">
<ele>-228.173279</ele>
<time>2011-04-09T09:58:09.998Z</time>
</trkpt>
<trkpt lat="31.0930700" lon="35.3792000">
<ele>-228.173279</ele>
<time>2011-04-09T09:58:17.999Z</time>
</trkpt>
<trkpt lat="31.0942700" lon="35.3785100">
<ele>-234.421677</ele>
<time>2011-04-09T09:58:40.999Z</time>
</trkpt>
<trkpt lat="31.0949900" lon="35.3783100">
<ele>-237.317276</ele>
<time>2011-04-09T09:58:51.997Z</time>
</trkpt>
<trkpt lat="31.0952700" lon="35.3783500">
<ele>-238.262161</ele>
<time>2011-04-09T09:58:57.000Z</time>
</trkpt>
<trkpt lat="31.0955800" lon="35.3783300">
<ele>-238.749832</ele>
<time>2011-04-09T09:59:02.996Z</time>
</trkpt>
<trkpt lat="31.0962700" lon="35.3780500">
<ele>-242.590332</ele>
<time>2011-04-09T09:59:17.002Z</time>
</trkpt>
<trkpt lat="31.0969100" lon="35.3774800">
<ele>-244.022873</ele>
<time>2011-04-09T09:59:32.001Z</time>
</trkpt>
<trkpt lat="31.0972900" lon="35.3774600">
<ele>-244.998230</ele>
<time>2011-04-09T09:59:38.999Z</time>
</trkpt>
<trkpt lat="31.0980400" lon="35.3777200">
<ele>-247.406158</ele>
<time>2011-04-09T09:59:52.996Z</time>
</trkpt>
<trkpt lat="31.0984000" lon="35.3776000">
<ele>-249.326401</ele>
<time>2011-04-09T10:00:00.996Z</time>
</trkpt>
<trkpt lat="31.0985400" lon="35.3773900">
<ele>-249.814072</ele>
<time>2011-04-09T10:00:05.999Z</time>
</trkpt>
<trkpt lat="31.0987400" lon="35.3773200">
<ele>-250.271271</ele>
<time>2011-04-09T10:00:11.002Z</time>
</trkpt>
<trkpt lat="31.0990800" lon="35.3773400">
<ele>-252.222000</ele>
<time>2011-04-09T10:00:19.996Z</time>
</trkpt>
<trkpt lat="31.0994100" lon="35.3771600">
<ele>-252.679199</ele>
<time>2011-04-09T10:00:31.003Z</time>
</trkpt>
<trkpt lat="31.0994000" lon="35.3770300">
<ele>-254.142242</ele>
<time>2011-04-09T10:00:35.004Z</time>
</trkpt>
<trkpt lat="31.0995100" lon="35.3767600">
<ele>-254.599442</ele>
<time>2011-04-09T10:00:45.000Z</time>
</trkpt>
<trkpt lat="31.0997900" lon="35.3768700">
<ele>-255.574799</ele>
<time>2011-04-09T10:00:54.003Z</time>
</trkpt>
<trkpt lat="31.0998400" lon="35.3766100">
<ele>-256.062469</ele>
<time>2011-04-09T10:01:02.004Z</time>
</trkpt>
<trkpt lat="31.1000000" lon="35.3762500">
<ele>-257.982727</ele>
<time>2011-04-09T10:01:13.002Z</time>
</trkpt>
<trkpt lat="31.1003400" lon="35.3760500">
<ele>-258.470398</ele>
<time>2011-04-09T10:01:21.996Z</time>
</trkpt>
<trkpt lat="31.1005200" lon="35.3760100">
<ele>-258.927612</ele>
<time>2011-04-09T10:01:25.997Z</time>
</trkpt>
<trkpt lat="31.1006900" lon="35.3758700">
<ele>-259.415283</ele>
<time>2011-04-09T10:01:33.004Z</time>
</trkpt>
<trkpt lat="31.1007600" lon="35.3752700">
<ele>-260.390625</ele>
<time>2011-04-09T10:01:48.003Z</time>
</trkpt>
<trkpt lat="31.1008200" lon="35.3751900">
<ele>-261.335541</ele>
<time>2011-04-09T10:01:52.003Z</time>
</trkpt>
<trkpt lat="31.1009000" lon="35.3752500">
<ele>-261.335541</ele>
<time>2011-04-09T10:01:56.997Z</time>
</trkpt>
<trkpt lat="31.1013200" lon="35.3761300">
<ele>-263.255768</ele>
<time>2011-04-09T10:02:23.997Z</time>
</trkpt>
<trkpt lat="31.1016300" lon="35.3761600">
<ele>-264.231140</ele>
<time>2011-04-09T10:02:35.998Z</time>
</trkpt>
<trkpt lat="31.1020600" lon="35.3757700">
<ele>-265.663666</ele>
<time>2011-04-09T10:02:58.998Z</time>
</trkpt>
<trkpt lat="31.1023900" lon="35.3748600">
<ele>-268.071594</ele>
<time>2011-04-09T10:03:25.998Z</time>
</trkpt>
<trkpt lat="31.1024800" lon="35.3748400">
<ele>-268.071594</ele>
<time>2011-04-09T10:03:28.002Z</time>
</trkpt>
<trkpt lat="31.1026600" lon="35.3744800">
<ele>-269.991821</ele>
<time>2011-04-09T10:03:36.996Z</time>
</trkpt>
<trkpt lat="31.1030300" lon="35.3747000">
<ele>-271.424408</ele>
<time>2011-04-09T10:03:48.004Z</time>
</trkpt>
<trkpt lat="31.1032700" lon="35.3747500">
<ele>-271.424408</ele>
<time>2011-04-09T10:03:52.998Z</time>
</trkpt>
<trkpt lat="31.1036500" lon="35.3749100">
<ele>-272.399750</ele>
<time>2011-04-09T10:04:00.998Z</time>
</trkpt>
<trkpt lat="31.1039500" lon="35.3747700">
<ele>-273.832336</ele>
<time>2011-04-09T10:04:08.999Z</time>
</trkpt>
<trkpt lat="31.1040400" lon="35.3743700">
<ele>-274.320007</ele>
<time>2011-04-09T10:04:15.997Z</time>
</trkpt>
<trkpt lat="31.1042700" lon="35.3743100">
<ele>-275.752563</ele>
<time>2011-04-09T10:04:22.996Z</time>
</trkpt>
<trkpt lat="31.1045300" lon="35.3745200">
<ele>-276.727936</ele>
<time>2011-04-09T10:04:29.001Z</time>
</trkpt>
<trkpt lat="31.1047000" lon="35.3744300">
<ele>-278.160461</ele>
<time>2011-04-09T10:04:35.999Z</time>
</trkpt>
<trkpt lat="31.1047100" lon="35.3742100">
<ele>-278.160461</ele>
<time>2011-04-09T10:04:42.004Z</time>
</trkpt>
<trkpt lat="31.1048400" lon="35.3742700">
<ele>-278.648163</ele>
<time>2011-04-09T10:04:45.002Z</time>
</trkpt>
<trkpt lat="31.1051700" lon="35.3742400">
<ele>-280.080719</ele>
<time>2011-04-09T10:04:53.003Z</time>
</trkpt>
<trkpt lat="31.1051800" lon="35.3741300">
<ele>-280.568390</ele>
<time>2011-04-09T10:04:54.998Z</time>
</trkpt>
<trkpt lat="31.1054300" lon="35.3740500">
<ele>-282.488647</ele>
<time>2011-04-09T10:05:02.999Z</time>
</trkpt>
<trkpt lat="31.1055700" lon="35.3741900">
<ele>-282.976318</ele>
<time>2011-04-09T10:05:05.997Z</time>
</trkpt>
<trkpt lat="31.1057400" lon="35.3741400">
<ele>-283.463989</ele>
<time>2011-04-09T10:05:12.002Z</time>
</trkpt>
<trkpt lat="31.1057200" lon="35.3738000">
<ele>-283.463989</ele>
<time>2011-04-09T10:05:19.000Z</time>
</trkpt>
<trkpt lat="31.1058300" lon="35.3739200">
<ele>-284.408875</ele>
<time>2011-04-09T10:05:24.003Z</time>
</trkpt>
<trkpt lat="31.1059100" lon="35.3741900">
<ele>-284.896576</ele>
<time>2011-04-09T10:05:28.997Z</time>
</trkpt>
<trkpt lat="31.1062000" lon="35.3743500">
<ele>-285.384247</ele>
<time>2011-04-09T10:05:36.997Z</time>
</trkpt>
<trkpt lat="31.1059700" lon="35.3737700">
<ele>-287.304474</ele>
<time>2011-04-09T10:05:48.998Z</time>
</trkpt>
<trkpt lat="31.1060900" lon="35.3736400">
<ele>-288.737030</ele>
<time>2011-04-09T10:05:55.003Z</time>
</trkpt>
<trkpt lat="31.1062300" lon="35.3737300">
<ele>-289.712402</ele>
<time>2011-04-09T10:05:58.001Z</time>
</trkpt>
<trkpt lat="31.1066200" lon="35.3738400">
<ele>-290.169586</ele>
<time>2011-04-09T10:06:05.000Z</time>
</trkpt>
<trkpt lat="31.1071600" lon="35.3743800">
<ele>-292.089844</ele>
<time>2011-04-09T10:06:18.996Z</time>
</trkpt>
<trkpt lat="31.1073100" lon="35.3740600">
<ele>-293.552887</ele>
<time>2011-04-09T10:06:26.004Z</time>
</trkpt>
<trkpt lat="31.1077800" lon="35.3739500">
<ele>-294.985443</ele>
<time>2011-04-09T10:06:37.996Z</time>
</trkpt>
<trkpt lat="31.1079200" lon="35.3742000">
<ele>-295.473114</ele>
<time>2011-04-09T10:06:44.001Z</time>
</trkpt>
<trkpt lat="31.1080100" lon="35.3741200">
<ele>-296.417999</ele>
<time>2011-04-09T10:06:49.003Z</time>
</trkpt>
<trkpt lat="31.1081000" lon="35.3738700">
<ele>-296.905670</ele>
<time>2011-04-09T10:06:56.002Z</time>
</trkpt>
<trkpt lat="31.1081800" lon="35.3738300">
<ele>-297.881042</ele>
<time>2011-04-09T10:06:57.997Z</time>
</trkpt>
<trkpt lat="31.1084000" lon="35.3739400">
<ele>-298.825928</ele>
<time>2011-04-09T10:07:04.996Z</time>
</trkpt>
<trkpt lat="31.1084900" lon="35.3737200">
<ele>-298.825928</ele>
<time>2011-04-09T10:07:09.998Z</time>
</trkpt>
<trkpt lat="31.1086600" lon="35.3737100">
<ele>-299.801270</ele>
<time>2011-04-09T10:07:16.003Z</time>
</trkpt>
<trkpt lat="31.1087100" lon="35.3738400">
<ele>-299.801270</ele>
<time>2011-04-09T10:07:19.001Z</time>
</trkpt>
<trkpt lat="31.1088700" lon="35.3736900">
<ele>-299.801270</ele>
<time>2011-04-09T10:07:26.000Z</time>
</trkpt>
<trkpt lat="31.1090800" lon="35.3736400">
<ele>-300.746155</ele>
<time>2011-04-09T10:07:31.996Z</time>
</trkpt>
<trkpt lat="31.1093300" lon="35.3734100">
<ele>-302.666412</ele>
<time>2011-04-09T10:07:43.003Z</time>
</trkpt>
<trkpt lat="31.1094000" lon="35.3735200">
<ele>-303.154083</ele>
<time>2011-04-09T10:07:44.999Z</time>
</trkpt>
<trkpt lat="31.1097600" lon="35.3736000">
<ele>-303.641754</ele>
<time>2011-04-09T10:07:53.000Z</time>
</trkpt>
<trkpt lat="31.1097700" lon="35.3734200">
<ele>-304.586639</ele>
<time>2011-04-09T10:07:59.998Z</time>
</trkpt>
<trkpt lat="31.1097000" lon="35.3732100">
<ele>-306.537354</ele>
<time>2011-04-09T10:08:06.996Z</time>
</trkpt>
<trkpt lat="31.1102100" lon="35.3732800">
<ele>-307.969940</ele>
<time>2011-04-09T10:08:22.004Z</time>
</trkpt>
<trkpt lat="31.1102000" lon="35.3730600">
<ele>-308.457611</ele>
<time>2011-04-09T10:08:28.000Z</time>
</trkpt>
<trkpt lat="31.1103900" lon="35.3732200">
<ele>-309.402466</ele>
<time>2011-04-09T10:08:32.001Z</time>
</trkpt>
<trkpt lat="31.1110100" lon="35.3733900">
<ele>-311.322723</ele>
<time>2011-04-09T10:08:42.999Z</time>
</trkpt>
<trkpt lat="31.1113700" lon="35.3733200">
<ele>-312.298065</ele>
<time>2011-04-09T10:08:49.998Z</time>
</trkpt>
<trkpt lat="31.1116500" lon="35.3730500">
<ele>-313.242950</ele>
<time>2011-04-09T10:08:59.001Z</time>
</trkpt>
<trkpt lat="31.1118800" lon="35.3732400">
<ele>-313.730652</ele>
<time>2011-04-09T10:09:05.999Z</time>
</trkpt>
<trkpt lat="31.1122500" lon="35.3731300">
<ele>-315.650879</ele>
<time>2011-04-09T10:09:15.002Z</time>
</trkpt>
<trkpt lat="31.1125200" lon="35.3735000">
<ele>-316.626251</ele>
<time>2011-04-09T10:09:26.001Z</time>
</trkpt>
<trkpt lat="31.1127200" lon="35.3734200">
<ele>-317.083466</ele>
<time>2011-04-09T10:09:31.003Z</time>
</trkpt>
<trkpt lat="31.1130300" lon="35.3731800">
<ele>-318.058807</ele>
<time>2011-04-09T10:09:38.002Z</time>
</trkpt>
<trkpt lat="31.1131900" lon="35.3732200">
<ele>-318.546478</ele>
<time>2011-04-09T10:09:43.004Z</time>
</trkpt>
<trkpt lat="31.1134600" lon="35.3734600">
<ele>-319.034149</ele>
<time>2011-04-09T10:09:50.996Z</time>
</trkpt>
<trkpt lat="31.1135500" lon="35.3732300">
<ele>-319.034149</ele>
<time>2011-04-09T10:09:57.001Z</time>
</trkpt>
<trkpt lat="31.1135700" lon="35.3730500">
<ele>-320.466736</ele>
<time>2011-04-09T10:10:02.997Z</time>
</trkpt>
<trkpt lat="31.1136900" lon="35.3729000">
<ele>-320.954407</ele>
<time>2011-04-09T10:10:08.000Z</time>
</trkpt>
<trkpt lat="31.1140800" lon="35.3732800">
<ele>-322.874664</ele>
<time>2011-04-09T10:10:17.003Z</time>
</trkpt>
<trkpt lat="31.1144600" lon="35.3732000">
<ele>-324.794861</ele>
<time>2011-04-09T10:10:29.004Z</time>
</trkpt>
<trkpt lat="31.1149000" lon="35.3732500">
<ele>-325.739746</ele>
<time>2011-04-09T10:10:39.000Z</time>
</trkpt>
<trkpt lat="31.1154400" lon="35.3730200">
<ele>-326.715118</ele>
<time>2011-04-09T10:10:52.003Z</time>
</trkpt>
<trkpt lat="31.1155100" lon="35.3732100">
<ele>-327.660004</ele>
<time>2011-04-09T10:11:02.000Z</time>
</trkpt>
<trkpt lat="31.1155600" lon="35.3732100">
<ele>-327.660004</ele>
<time>2011-04-09T10:11:04.004Z</time>
</trkpt>
<trkpt lat="31.1158500" lon="35.3730200">
<ele>-328.635345</ele>
<time>2011-04-09T10:11:14.001Z</time>
</trkpt>
<trkpt lat="31.1158800" lon="35.3728500">
<ele>-329.580261</ele>
<time>2011-04-09T10:11:16.999Z</time>
</trkpt>
<trkpt lat="31.1161700" lon="35.3725400">
<ele>-331.988159</ele>
<time>2011-04-09T10:11:24.999Z</time>
</trkpt>
<trkpt lat="31.1164700" lon="35.3724300">
<ele>-332.963531</ele>
<time>2011-04-09T10:11:31.004Z</time>
</trkpt>
<trkpt lat="31.1173600" lon="35.3715500">
<ele>-336.316315</ele>
<time>2011-04-09T10:11:51.999Z</time>
</trkpt>
<trkpt lat="31.1177300" lon="35.3719400">
<ele>-336.803986</ele>
<time>2011-04-09T10:12:13.997Z</time>
</trkpt>
<trkpt lat="31.1177500" lon="35.3719100">
<ele>-336.316315</ele>
<time>2011-04-09T10:12:58.000Z</time>
</trkpt>
<trkpt lat="31.1181700" lon="35.3722100">
<ele>-336.316315</ele>
<time>2011-04-09T10:13:17.000Z</time>
</trkpt>
<trkpt lat="31.1189200" lon="35.3728000">
<ele>-337.291687</ele>
<time>2011-04-09T10:13:38.004Z</time>
</trkpt>
<trkpt lat="31.1196300" lon="35.3734900">
<ele>-337.779358</ele>
<time>2011-04-09T10:13:58.999Z</time>
</trkpt>
<trkpt lat="31.1199900" lon="35.3736800">
<ele>-338.724243</ele>
<time>2011-04-09T10:14:06.999Z</time>
</trkpt>
<trkpt lat="31.1203100" lon="35.3739600">
<ele>-339.699585</ele>
<time>2011-04-09T10:14:15.000Z</time>
</trkpt>
<trkpt lat="31.1212000" lon="35.3742800">
<ele>-340.644470</ele>
<time>2011-04-09T10:14:33.999Z</time>
</trkpt>
<trkpt lat="31.1215900" lon="35.3743500">
<ele>-341.132141</ele>
<time>2011-04-09T10:14:42.000Z</time>
</trkpt>
<trkpt lat="31.1222400" lon="35.3742100">
<ele>-342.077057</ele>
<time>2011-04-09T10:14:55.997Z</time>
</trkpt>
<trkpt lat="31.1228500" lon="35.3737200">
<ele>-343.540070</ele>
<time>2011-04-09T10:15:10.996Z</time>
</trkpt>
<trkpt lat="31.1229800" lon="35.3735500">
<ele>-344.027740</ele>
<time>2011-04-09T10:15:14.996Z</time>
</trkpt>
<trkpt lat="31.1236800" lon="35.3731000">
<ele>-344.027740</ele>
<time>2011-04-09T10:15:33.002Z</time>
</trkpt>
<trkpt lat="31.1245400" lon="35.3729000">
<ele>-343.540070</ele>
<time>2011-04-09T10:15:52.001Z</time>
</trkpt>
<trkpt lat="31.1254200" lon="35.3729300">
<ele>-344.972656</ele>
<time>2011-04-09T10:16:08.996Z</time>
</trkpt>
<trkpt lat="31.1262700" lon="35.3732600">
<ele>-346.892883</ele>
<time>2011-04-09T10:16:24.997Z</time>
</trkpt>
<trkpt lat="31.1279000" lon="35.3741500">
<ele>-348.325470</ele>
<time>2011-04-09T10:16:59.998Z</time>
</trkpt>
<trkpt lat="31.1282400" lon="35.3744700">
<ele>-349.300812</ele>
<time>2011-04-09T10:17:07.999Z</time>
</trkpt>
<trkpt lat="31.1285800" lon="35.3746800">
<ele>-349.300812</ele>
<time>2011-04-09T10:17:14.997Z</time>
</trkpt>
<trkpt lat="31.1296500" lon="35.3747900">
<ele>-349.788483</ele>
<time>2011-04-09T10:17:36.001Z</time>
</trkpt>
<trkpt lat="31.1302000" lon="35.3745500">
<ele>-349.300812</ele>
<time>2011-04-09T10:17:52.002Z</time>
</trkpt>
<trkpt lat="31.1307500" lon="35.3741800">
<ele>-350.276154</ele>
<time>2011-04-09T10:18:08.004Z</time>
</trkpt>
<trkpt lat="31.1309200" lon="35.3742000">
<ele>-349.788483</ele>
<time>2011-04-09T10:18:12.997Z</time>
</trkpt>
<trkpt lat="31.1312600" lon="35.3744600">
<ele>-351.221069</ele>
<time>2011-04-09T10:18:22.000Z</time>
</trkpt>
<trkpt lat="31.1315000" lon="35.3748200">
<ele>-355.549194</ele>
<time>2011-04-09T10:18:28.999Z</time>
</trkpt>
<trkpt lat="31.1318500" lon="35.3749800">
<ele>-355.549194</ele>
<time>2011-04-09T10:18:35.004Z</time>
</trkpt>
<trkpt lat="31.1324300" lon="35.3748300">
<ele>-356.524536</ele>
<time>2011-04-09T10:18:46.002Z</time>
</trkpt>
<trkpt lat="31.1328900" lon="35.3745100">
<ele>-357.469452</ele>
<time>2011-04-09T10:18:57.001Z</time>
</trkpt>
<trkpt lat="31.1334900" lon="35.3743000">
<ele>-357.469452</ele>
<time>2011-04-09T10:19:10.004Z</time>
</trkpt>
<trkpt lat="31.1338000" lon="35.3742800">
<ele>-358.444794</ele>
<time>2011-04-09T10:19:17.003Z</time>
</trkpt>
<trkpt lat="31.1342900" lon="35.3739000">
<ele>-359.877350</ele>
<time>2011-04-09T10:19:32.002Z</time>
</trkpt>
<trkpt lat="31.1354500" lon="35.3734100">
<ele>-361.797607</ele>
<time>2011-04-09T10:19:56.004Z</time>
</trkpt>
<trkpt lat="31.1357500" lon="35.3735000">
<ele>-358.444794</ele>
<time>2011-04-09T10:20:04.004Z</time>
</trkpt>
<trkpt lat="31.1358200" lon="35.3738000">
<ele>-356.981750</ele>
<time>2011-04-09T10:20:16.999Z</time>
</trkpt>
<trkpt lat="31.1362200" lon="35.3738500">
<ele>-359.877350</ele>
<time>2011-04-09T10:20:29.000Z</time>
</trkpt>
<trkpt lat="31.1364200" lon="35.3737700">
<ele>-360.852722</ele>
<time>2011-04-09T10:20:33.000Z</time>
</trkpt>
<trkpt lat="31.1367500" lon="35.3737900">
<ele>-362.772949</ele>
<time>2011-04-09T10:20:39.998Z</time>
</trkpt>
<trkpt lat="31.1369200" lon="35.3739300">
<ele>-361.309937</ele>
<time>2011-04-09T10:20:45.001Z</time>
</trkpt>
<trkpt lat="31.1369700" lon="35.3741200">
<ele>-361.797607</ele>
<time>2011-04-09T10:20:49.001Z</time>
</trkpt>
<trkpt lat="31.1372000" lon="35.3744500">
<ele>-362.772949</ele>
<time>2011-04-09T10:20:57.002Z</time>
</trkpt>
<trkpt lat="31.1375600" lon="35.3752300">
<ele>-364.205536</ele>
<time>2011-04-09T10:21:13.003Z</time>
</trkpt>
<trkpt lat="31.1378800" lon="35.3756300">
<ele>-365.150391</ele>
<time>2011-04-09T10:21:21.997Z</time>
</trkpt>
<trkpt lat="31.1383500" lon="35.3756900">
<ele>-366.613464</ele>
<time>2011-04-09T10:21:32.003Z</time>
</trkpt>
<trkpt lat="31.1387800" lon="35.3754000">
<ele>-369.966248</ele>
<time>2011-04-09T10:21:40.997Z</time>
</trkpt>
<trkpt lat="31.1393100" lon="35.3753500">
<ele>-373.806732</ele>
<time>2011-04-09T10:21:48.004Z</time>
</trkpt>
<trkpt lat="31.1399600" lon="35.3753400">
<ele>-376.702332</ele>
<time>2011-04-09T10:21:55.996Z</time>
</trkpt>
<trkpt lat="31.1401600" lon="35.3755300">
<ele>-377.190002</ele>
<time>2011-04-09T10:22:02.001Z</time>
</trkpt>
<trkpt lat="31.1411100" lon="35.3776700">
<ele>-378.622559</ele>
<time>2011-04-09T10:22:42.004Z</time>
</trkpt>
<trkpt lat="31.1416300" lon="35.3792600">
<ele>-379.110260</ele>
<time>2011-04-09T10:23:15.000Z</time>
</trkpt>
<trkpt lat="31.1424800" lon="35.3801900">
<ele>-375.269745</ele>
<time>2011-04-09T10:23:52.999Z</time>
</trkpt>
<trkpt lat="31.1424600" lon="35.3801400">
<ele>-375.726959</ele>
<time>2011-04-09T10:24:00.999Z</time>
</trkpt>
<trkpt lat="31.1450800" lon="35.3772800">
<ele>-375.269745</ele>
<time>2011-04-09T10:25:31.002Z</time>
</trkpt>
<trkpt lat="31.1456000" lon="35.3765500">
<ele>-372.861847</ele>
<time>2011-04-09T10:25:51.004Z</time>
</trkpt>
<trkpt lat="31.1457300" lon="35.3692600">
<ele>-374.294403</ele>
<time>2011-04-09T10:28:25.003Z</time>
</trkpt>
<trkpt lat="31.1457200" lon="35.3684100">
<ele>-373.806732</ele>
<time>2011-04-09T10:28:44.003Z</time>
</trkpt>
<trkpt lat="31.1456800" lon="35.3682300">
<ele>-372.861847</ele>
<time>2011-04-09T10:28:48.996Z</time>
</trkpt>
<trkpt lat="31.1458700" lon="35.3682300">
<ele>-371.398804</ele>
<time>2011-04-09T10:28:57.999Z</time>
</trkpt>
<trkpt lat="31.1473700" lon="35.3696700">
<ele>-376.214661</ele>
<time>2011-04-09T10:29:34.002Z</time>
</trkpt>
<trkpt lat="31.1476800" lon="35.3698100">
<ele>-377.190002</ele>
<time>2011-04-09T10:29:41.001Z</time>
</trkpt>
<trkpt lat="31.1479900" lon="35.3697800">
<ele>-377.647186</ele>
<time>2011-04-09T10:29:47.999Z</time>
</trkpt>
<trkpt lat="31.1482700" lon="35.3698900">
<ele>-378.134888</ele>
<time>2011-04-09T10:29:56.000Z</time>
</trkpt>
<trkpt lat="31.1483300" lon="35.3699900">
<ele>-378.134888</ele>
<time>2011-04-09T10:29:58.998Z</time>
</trkpt>
<trkpt lat="31.1484800" lon="35.3699500">
<ele>-379.110260</ele>
<time>2011-04-09T10:32:56.999Z</time>
</trkpt>
</trkseg>
</trk>
</gpx>
